<?xml version="1.0" encoding="UTF-8" standalone="no" ?>
<gpx xmlns="http://www.topografix.com/GPX/1/1" xmlns:xsi="http://www.w3.org/2001/XMLSchema-instance" xsi:schemaLocation="http://www.topografix.com/GPX/1/1 http://www.topografix.com/GPX/1/1/gpx.xsd" version="1.1" creator="VisuGPX - https://www.visugpx.com">
  <metadata>
    <name>E7 Grignols La Roque Gageac </name>
    <desc><![CDATA[E7 Grignols La Roque Gageac 140
hub03grbx]]></desc>
  </metadata>
  <trk>
    <name><![CDATA[Toaster Course]]></name>
    <trkseg>
      <trkpt lat="44.38718" lon="-0.04326">
        <ele>147</ele>
        <time>2013-04-29T00:00:00Z</time>
      </trkpt>
      <trkpt lat="44.3872" lon="-0.04329">
        <ele>147</ele>
        <time>2013-04-29T00:00:00Z</time>
      </trkpt>
      <trkpt lat="44.38687" lon="-0.04361">
        <ele>147</ele>
        <time>2013-04-29T00:00:07Z</time>
      </trkpt>
      <trkpt lat="44.38727" lon="-0.04416">
        <ele>148</ele>
        <time>2013-04-29T00:00:16Z</time>
      </trkpt>
      <trkpt lat="44.38733" lon="-0.04414">
        <ele>148</ele>
        <time>2013-04-29T00:00:17Z</time>
      </trkpt>
      <trkpt lat="44.38738" lon="-0.04403">
        <ele>148</ele>
        <time>2013-04-29T00:00:19Z</time>
      </trkpt>
      <trkpt lat="44.38752" lon="-0.04391">
        <ele>149</ele>
        <time>2013-04-29T00:00:22Z</time>
      </trkpt>
      <trkpt lat="44.38799" lon="-0.04357">
        <ele>149</ele>
        <time>2013-04-29T00:00:31Z</time>
      </trkpt>
      <trkpt lat="44.38863" lon="-0.04306">
        <ele>151</ele>
        <time>2013-04-29T00:00:44Z</time>
      </trkpt>
      <trkpt lat="44.38974" lon="-0.04207">
        <ele>153</ele>
        <time>2013-04-29T00:01:06Z</time>
      </trkpt>
      <trkpt lat="44.38996" lon="-0.04165">
        <ele>153</ele>
        <time>2013-04-29T00:01:11Z</time>
      </trkpt>
      <trkpt lat="44.39035" lon="-0.04073">
        <ele>153</ele>
        <time>2013-04-29T00:01:21Z</time>
      </trkpt>
      <trkpt lat="44.39199" lon="-0.03623">
        <ele>144</ele>
        <time>2013-04-29T00:02:09Z</time>
      </trkpt>
      <trkpt lat="44.39319" lon="-0.03307">
        <ele>134</ele>
        <time>2013-04-29T00:02:43Z</time>
      </trkpt>
      <trkpt lat="44.39338" lon="-0.03248">
        <ele>131</ele>
        <time>2013-04-29T00:02:50Z</time>
      </trkpt>
      <trkpt lat="44.39342" lon="-0.03225">
        <ele>130</ele>
        <time>2013-04-29T00:02:52Z</time>
      </trkpt>
      <trkpt lat="44.39343" lon="-0.03177">
        <ele>129</ele>
        <time>2013-04-29T00:02:56Z</time>
      </trkpt>
      <trkpt lat="44.3932" lon="-0.03079">
        <ele>125</ele>
        <time>2013-04-29T00:03:06Z</time>
      </trkpt>
      <trkpt lat="44.39318" lon="-0.03015">
        <ele>123</ele>
        <time>2013-04-29T00:03:12Z</time>
      </trkpt>
      <trkpt lat="44.39348" lon="-0.02789">
        <ele>114</ele>
        <time>2013-04-29T00:03:34Z</time>
      </trkpt>
      <trkpt lat="44.39353" lon="-0.02768">
        <ele>113</ele>
        <time>2013-04-29T00:03:36Z</time>
      </trkpt>
      <trkpt lat="44.39369" lon="-0.02735">
        <ele>112</ele>
        <time>2013-04-29T00:03:40Z</time>
      </trkpt>
      <trkpt lat="44.39503" lon="-0.02626">
        <ele>108</ele>
        <time>2013-04-29T00:04:01Z</time>
      </trkpt>
      <trkpt lat="44.39521" lon="-0.02617">
        <ele>107</ele>
        <time>2013-04-29T00:04:04Z</time>
      </trkpt>
      <trkpt lat="44.39541" lon="-0.02614">
        <ele>107</ele>
        <time>2013-04-29T00:04:06Z</time>
      </trkpt>
      <trkpt lat="44.39561" lon="-0.0262">
        <ele>107</ele>
        <time>2013-04-29T00:04:09Z</time>
      </trkpt>
      <trkpt lat="44.39573" lon="-0.02627">
        <ele>107</ele>
        <time>2013-04-29T00:04:11Z</time>
      </trkpt>
      <trkpt lat="44.39601" lon="-0.02657">
        <ele>107</ele>
        <time>2013-04-29T00:04:15Z</time>
      </trkpt>
      <trkpt lat="44.39625" lon="-0.0266">
        <ele>105</ele>
        <time>2013-04-29T00:04:19Z</time>
      </trkpt>
      <trkpt lat="44.39641" lon="-0.02653">
        <ele>104</ele>
        <time>2013-04-29T00:04:21Z</time>
      </trkpt>
      <trkpt lat="44.39678" lon="-0.02607">
        <ele>101</ele>
        <time>2013-04-29T00:04:27Z</time>
      </trkpt>
      <trkpt lat="44.39703" lon="-0.02594">
        <ele>100</ele>
        <time>2013-04-29T00:04:31Z</time>
      </trkpt>
      <trkpt lat="44.39732" lon="-0.02599">
        <ele>99</ele>
        <time>2013-04-29T00:04:35Z</time>
      </trkpt>
      <trkpt lat="44.3977" lon="-0.02637">
        <ele>98</ele>
        <time>2013-04-29T00:04:41Z</time>
      </trkpt>
      <trkpt lat="44.39779" lon="-0.02641">
        <ele>98</ele>
        <time>2013-04-29T00:04:42Z</time>
      </trkpt>
      <trkpt lat="44.39807" lon="-0.02633">
        <ele>98</ele>
        <time>2013-04-29T00:04:46Z</time>
      </trkpt>
      <trkpt lat="44.39843" lon="-0.02611">
        <ele>95</ele>
        <time>2013-04-29T00:04:52Z</time>
      </trkpt>
      <trkpt lat="44.39871" lon="-0.02609">
        <ele>94</ele>
        <time>2013-04-29T00:04:55Z</time>
      </trkpt>
      <trkpt lat="44.3991" lon="-0.02648">
        <ele>92</ele>
        <time>2013-04-29T00:05:02Z</time>
      </trkpt>
      <trkpt lat="44.39926" lon="-0.02675">
        <ele>92</ele>
        <time>2013-04-29T00:05:07Z</time>
      </trkpt>
      <trkpt lat="44.39934" lon="-0.0279">
        <ele>96</ele>
        <time>2013-04-29T00:05:26Z</time>
      </trkpt>
      <trkpt lat="44.39937" lon="-0.02809">
        <ele>94</ele>
        <time>2013-04-29T00:05:27Z</time>
      </trkpt>
      <trkpt lat="44.39954" lon="-0.02853">
        <ele>90</ele>
        <time>2013-04-29T00:05:32Z</time>
      </trkpt>
      <trkpt lat="44.39988" lon="-0.02888">
        <ele>86</ele>
        <time>2013-04-29T00:05:38Z</time>
      </trkpt>
      <trkpt lat="44.40021" lon="-0.02901">
        <ele>83</ele>
        <time>2013-04-29T00:05:42Z</time>
      </trkpt>
      <trkpt lat="44.40042" lon="-0.029">
        <ele>82</ele>
        <time>2013-04-29T00:05:45Z</time>
      </trkpt>
      <trkpt lat="44.4019" lon="-0.0282">
        <ele>77</ele>
        <time>2013-04-29T00:06:06Z</time>
      </trkpt>
      <trkpt lat="44.40522" lon="-0.02781">
        <ele>81</ele>
        <time>2013-04-29T00:07:01Z</time>
      </trkpt>
      <trkpt lat="44.40547" lon="-0.02775">
        <ele>81</ele>
        <time>2013-04-29T00:07:05Z</time>
      </trkpt>
      <trkpt lat="44.40586" lon="-0.02745">
        <ele>81</ele>
        <time>2013-04-29T00:07:12Z</time>
      </trkpt>
      <trkpt lat="44.40826" lon="-0.02524">
        <ele>85</ele>
        <time>2013-04-29T00:07:58Z</time>
      </trkpt>
      <trkpt lat="44.40854" lon="-0.02491">
        <ele>86</ele>
        <time>2013-04-29T00:08:05Z</time>
      </trkpt>
      <trkpt lat="44.40897" lon="-0.02427">
        <ele>88</ele>
        <time>2013-04-29T00:08:18Z</time>
      </trkpt>
      <trkpt lat="44.40914" lon="-0.02412">
        <ele>89</ele>
        <time>2013-04-29T00:08:25Z</time>
      </trkpt>
      <trkpt lat="44.40956" lon="-0.02397">
        <ele>93</ele>
        <time>2013-04-29T00:08:41Z</time>
      </trkpt>
      <trkpt lat="44.41036" lon="-0.02413">
        <ele>101</ele>
        <time>2013-04-29T00:09:09Z</time>
      </trkpt>
      <trkpt lat="44.41076" lon="-0.02399">
        <ele>103</ele>
        <time>2013-04-29T00:09:21Z</time>
      </trkpt>
      <trkpt lat="44.41094" lon="-0.02378">
        <ele>105</ele>
        <time>2013-04-29T00:09:28Z</time>
      </trkpt>
      <trkpt lat="44.41105" lon="-0.02351">
        <ele>107</ele>
        <time>2013-04-29T00:09:35Z</time>
      </trkpt>
      <trkpt lat="44.41108" lon="-0.02313">
        <ele>109</ele>
        <time>2013-04-29T00:09:43Z</time>
      </trkpt>
      <trkpt lat="44.41104" lon="-0.02211">
        <ele>106</ele>
        <time>2013-04-29T00:09:53Z</time>
      </trkpt>
      <trkpt lat="44.41107" lon="-0.02189">
        <ele>105</ele>
        <time>2013-04-29T00:09:55Z</time>
      </trkpt>
      <trkpt lat="44.41116" lon="-0.02161">
        <ele>105</ele>
        <time>2013-04-29T00:09:58Z</time>
      </trkpt>
      <trkpt lat="44.4114" lon="-0.02131">
        <ele>107</ele>
        <time>2013-04-29T00:10:09Z</time>
      </trkpt>
      <trkpt lat="44.41168" lon="-0.02117">
        <ele>110</ele>
        <time>2013-04-29T00:10:19Z</time>
      </trkpt>
      <trkpt lat="44.41268" lon="-0.02123">
        <ele>119</ele>
        <time>2013-04-29T00:10:53Z</time>
      </trkpt>
      <trkpt lat="44.413" lon="-0.02114">
        <ele>121</ele>
        <time>2013-04-29T00:11:03Z</time>
      </trkpt>
      <trkpt lat="44.41309" lon="-0.02106">
        <ele>121</ele>
        <time>2013-04-29T00:11:06Z</time>
      </trkpt>
      <trkpt lat="44.41329" lon="-0.02072">
        <ele>124</ele>
        <time>2013-04-29T00:11:15Z</time>
      </trkpt>
      <trkpt lat="44.41341" lon="-0.02035">
        <ele>126</ele>
        <time>2013-04-29T00:11:24Z</time>
      </trkpt>
      <trkpt lat="44.41357" lon="-0.01879">
        <ele>133</ele>
        <time>2013-04-29T00:11:56Z</time>
      </trkpt>
      <trkpt lat="44.41368" lon="-0.01835">
        <ele>132</ele>
        <time>2013-04-29T00:12:00Z</time>
      </trkpt>
      <trkpt lat="44.41381" lon="-0.01803">
        <ele>131</ele>
        <time>2013-04-29T00:12:04Z</time>
      </trkpt>
      <trkpt lat="44.41416" lon="-0.01757">
        <ele>131</ele>
        <time>2013-04-29T00:12:10Z</time>
      </trkpt>
      <trkpt lat="44.41528" lon="-0.01678">
        <ele>136</ele>
        <time>2013-04-29T00:12:39Z</time>
      </trkpt>
      <trkpt lat="44.41546" lon="-0.01658">
        <ele>137</ele>
        <time>2013-04-29T00:12:45Z</time>
      </trkpt>
      <trkpt lat="44.41607" lon="-0.01565">
        <ele>143</ele>
        <time>2013-04-29T00:13:11Z</time>
      </trkpt>
      <trkpt lat="44.41638" lon="-0.01535">
        <ele>143</ele>
        <time>2013-04-29T00:13:18Z</time>
      </trkpt>
      <trkpt lat="44.42153" lon="-0.01242">
        <ele>155</ele>
        <time>2013-04-29T00:14:59Z</time>
      </trkpt>
      <trkpt lat="44.42189" lon="-0.01218">
        <ele>153</ele>
        <time>2013-04-29T00:15:04Z</time>
      </trkpt>
      <trkpt lat="44.42213" lon="-0.01191">
        <ele>151</ele>
        <time>2013-04-29T00:15:08Z</time>
      </trkpt>
      <trkpt lat="44.42331" lon="-0.00959">
        <ele>143</ele>
        <time>2013-04-29T00:15:36Z</time>
      </trkpt>
      <trkpt lat="44.42356" lon="-0.009">
        <ele>140</ele>
        <time>2013-04-29T00:15:42Z</time>
      </trkpt>
      <trkpt lat="44.42368" lon="-0.0084">
        <ele>139</ele>
        <time>2013-04-29T00:15:48Z</time>
      </trkpt>
      <trkpt lat="44.42402" lon="-0.00609">
        <ele>137</ele>
        <time>2013-04-29T00:16:11Z</time>
      </trkpt>
      <trkpt lat="44.42417" lon="-0.00551">
        <ele>136</ele>
        <time>2013-04-29T00:16:16Z</time>
      </trkpt>
      <trkpt lat="44.42493" lon="-0.00398">
        <ele>133</ele>
        <time>2013-04-29T00:16:34Z</time>
      </trkpt>
      <trkpt lat="44.42539" lon="-0.0033">
        <ele>131</ele>
        <time>2013-04-29T00:16:43Z</time>
      </trkpt>
      <trkpt lat="44.42737" lon="-0.00084">
        <ele>127</ele>
        <time>2013-04-29T00:17:19Z</time>
      </trkpt>
      <trkpt lat="44.42821" lon="0.0007">
        <ele>135</ele>
        <time>2013-04-29T00:17:56Z</time>
      </trkpt>
      <trkpt lat="44.42851" lon="0.00112">
        <ele>135</ele>
        <time>2013-04-29T00:18:03Z</time>
      </trkpt>
      <trkpt lat="44.43254" lon="0.00418">
        <ele>139</ele>
        <time>2013-04-29T00:19:13Z</time>
      </trkpt>
      <trkpt lat="44.43289" lon="0.00447">
        <ele>138</ele>
        <time>2013-04-29T00:19:18Z</time>
      </trkpt>
      <trkpt lat="44.43324" lon="0.00487">
        <ele>138</ele>
        <time>2013-04-29T00:19:24Z</time>
      </trkpt>
      <trkpt lat="44.4384" lon="0.0117">
        <ele>134</ele>
        <time>2013-04-29T00:20:59Z</time>
      </trkpt>
      <trkpt lat="44.43923" lon="0.01285">
        <ele>131</ele>
        <time>2013-04-29T00:21:15Z</time>
      </trkpt>
      <trkpt lat="44.44653" lon="0.02426">
        <ele>139</ele>
        <time>2013-04-29T00:24:00Z</time>
      </trkpt>
      <trkpt lat="44.44742" lon="0.02577">
        <ele>140</ele>
        <time>2013-04-29T00:24:21Z</time>
      </trkpt>
      <trkpt lat="44.4476" lon="0.02592">
        <ele>140</ele>
        <time>2013-04-29T00:24:24Z</time>
      </trkpt>
      <trkpt lat="44.44811" lon="0.02599">
        <ele>140</ele>
        <time>2013-04-29T00:24:31Z</time>
      </trkpt>
      <trkpt lat="44.44857" lon="0.02637">
        <ele>140</ele>
        <time>2013-04-29T00:24:38Z</time>
      </trkpt>
      <trkpt lat="44.4494" lon="0.02725">
        <ele>136</ele>
        <time>2013-04-29T00:24:52Z</time>
      </trkpt>
      <trkpt lat="44.44952" lon="0.02762">
        <ele>134</ele>
        <time>2013-04-29T00:24:56Z</time>
      </trkpt>
      <trkpt lat="44.44953" lon="0.02838">
        <ele>132</ele>
        <time>2013-04-29T00:25:03Z</time>
      </trkpt>
      <trkpt lat="44.44898" lon="0.02853">
        <ele>130</ele>
        <time>2013-04-29T00:25:10Z</time>
      </trkpt>
      <trkpt lat="44.44898" lon="0.02853">
        <ele>130</ele>
        <time>2013-04-29T00:25:11Z</time>
      </trkpt>
      <trkpt lat="44.44953" lon="0.02838">
        <ele>128</ele>
        <time>2013-04-29T00:25:19Z</time>
      </trkpt>
      <trkpt lat="44.44955" lon="0.03148">
        <ele>124</ele>
        <time>2013-04-29T00:25:48Z</time>
      </trkpt>
      <trkpt lat="44.44964" lon="0.03212">
        <ele>122</ele>
        <time>2013-04-29T00:25:55Z</time>
      </trkpt>
      <trkpt lat="44.45145" lon="0.0372">
        <ele>109</ele>
        <time>2013-04-29T00:26:49Z</time>
      </trkpt>
      <trkpt lat="44.45172" lon="0.03775">
        <ele>106</ele>
        <time>2013-04-29T00:26:55Z</time>
      </trkpt>
      <trkpt lat="44.45206" lon="0.03816">
        <ele>105</ele>
        <time>2013-04-29T00:27:01Z</time>
      </trkpt>
      <trkpt lat="44.45232" lon="0.03837">
        <ele>104</ele>
        <time>2013-04-29T00:27:05Z</time>
      </trkpt>
      <trkpt lat="44.45272" lon="0.03855">
        <ele>102</ele>
        <time>2013-04-29T00:27:11Z</time>
      </trkpt>
      <trkpt lat="44.45329" lon="0.03858">
        <ele>101</ele>
        <time>2013-04-29T00:27:18Z</time>
      </trkpt>
      <trkpt lat="44.45368" lon="0.03845">
        <ele>100</ele>
        <time>2013-04-29T00:27:24Z</time>
      </trkpt>
      <trkpt lat="44.45396" lon="0.03828">
        <ele>99</ele>
        <time>2013-04-29T00:27:28Z</time>
      </trkpt>
      <trkpt lat="44.45544" lon="0.03721">
        <ele>96</ele>
        <time>2013-04-29T00:27:50Z</time>
      </trkpt>
      <trkpt lat="44.45585" lon="0.03711">
        <ele>94</ele>
        <time>2013-04-29T00:27:56Z</time>
      </trkpt>
      <trkpt lat="44.45637" lon="0.03725">
        <ele>92</ele>
        <time>2013-04-29T00:28:03Z</time>
      </trkpt>
      <trkpt lat="44.4566" lon="0.03741">
        <ele>91</ele>
        <time>2013-04-29T00:28:06Z</time>
      </trkpt>
      <trkpt lat="44.45684" lon="0.03767">
        <ele>90</ele>
        <time>2013-04-29T00:28:10Z</time>
      </trkpt>
      <trkpt lat="44.46339" lon="0.04639">
        <ele>72</ele>
        <time>2013-04-29T00:30:11Z</time>
      </trkpt>
      <trkpt lat="44.46392" lon="0.04704">
        <ele>69</ele>
        <time>2013-04-29T00:30:20Z</time>
      </trkpt>
      <trkpt lat="44.46449" lon="0.04749">
        <ele>68</ele>
        <time>2013-04-29T00:30:29Z</time>
      </trkpt>
      <trkpt lat="44.4699" lon="0.05064">
        <ele>69</ele>
        <time>2013-04-29T00:31:50Z</time>
      </trkpt>
      <trkpt lat="44.47118" lon="0.05135">
        <ele>65</ele>
        <time>2013-04-29T00:32:08Z</time>
      </trkpt>
      <trkpt lat="44.47157" lon="0.05152">
        <ele>63</ele>
        <time>2013-04-29T00:32:14Z</time>
      </trkpt>
      <trkpt lat="44.47208" lon="0.05164">
        <ele>61</ele>
        <time>2013-04-29T00:32:20Z</time>
      </trkpt>
      <trkpt lat="44.47254" lon="0.05168">
        <ele>60</ele>
        <time>2013-04-29T00:32:27Z</time>
      </trkpt>
      <trkpt lat="44.47613" lon="0.05172">
        <ele>55</ele>
        <time>2013-04-29T00:33:15Z</time>
      </trkpt>
      <trkpt lat="44.47709" lon="0.05178">
        <ele>53</ele>
        <time>2013-04-29T00:33:27Z</time>
      </trkpt>
      <trkpt lat="44.47776" lon="0.05197">
        <ele>55</ele>
        <time>2013-04-29T00:33:43Z</time>
      </trkpt>
      <trkpt lat="44.47812" lon="0.05214">
        <ele>57</ele>
        <time>2013-04-29T00:33:51Z</time>
      </trkpt>
      <trkpt lat="44.47849" lon="0.0524">
        <ele>57</ele>
        <time>2013-04-29T00:33:57Z</time>
      </trkpt>
      <trkpt lat="44.47898" lon="0.05285">
        <ele>57</ele>
        <time>2013-04-29T00:34:05Z</time>
      </trkpt>
      <trkpt lat="44.47923" lon="0.05315">
        <ele>55</ele>
        <time>2013-04-29T00:34:09Z</time>
      </trkpt>
      <trkpt lat="44.4803" lon="0.05497">
        <ele>48</ele>
        <time>2013-04-29T00:34:31Z</time>
      </trkpt>
      <trkpt lat="44.48065" lon="0.05541">
        <ele>47</ele>
        <time>2013-04-29T00:34:38Z</time>
      </trkpt>
      <trkpt lat="44.48096" lon="0.05565">
        <ele>47</ele>
        <time>2013-04-29T00:34:42Z</time>
      </trkpt>
      <trkpt lat="44.48121" lon="0.05577">
        <ele>47</ele>
        <time>2013-04-29T00:34:46Z</time>
      </trkpt>
      <trkpt lat="44.48342" lon="0.05641">
        <ele>40</ele>
        <time>2013-04-29T00:35:16Z</time>
      </trkpt>
      <trkpt lat="44.48381" lon="0.0566">
        <ele>39</ele>
        <time>2013-04-29T00:35:22Z</time>
      </trkpt>
      <trkpt lat="44.48679" lon="0.05995">
        <ele>33</ele>
        <time>2013-04-29T00:36:13Z</time>
      </trkpt>
      <trkpt lat="44.48719" lon="0.06021">
        <ele>33</ele>
        <time>2013-04-29T00:36:19Z</time>
      </trkpt>
      <trkpt lat="44.48796" lon="0.06061">
        <ele>34</ele>
        <time>2013-04-29T00:36:32Z</time>
      </trkpt>
      <trkpt lat="44.48818" lon="0.06078">
        <ele>33</ele>
        <time>2013-04-29T00:36:35Z</time>
      </trkpt>
      <trkpt lat="44.48838" lon="0.06106">
        <ele>33</ele>
        <time>2013-04-29T00:36:39Z</time>
      </trkpt>
      <trkpt lat="44.48994" lon="0.06387">
        <ele>31</ele>
        <time>2013-04-29T00:37:13Z</time>
      </trkpt>
      <trkpt lat="44.49119" lon="0.06753">
        <ele>28</ele>
        <time>2013-04-29T00:37:52Z</time>
      </trkpt>
      <trkpt lat="44.49321" lon="0.07028">
        <ele>25</ele>
        <time>2013-04-29T00:38:29Z</time>
      </trkpt>
      <trkpt lat="44.49355" lon="0.07062">
        <ele>23</ele>
        <time>2013-04-29T00:38:35Z</time>
      </trkpt>
      <trkpt lat="44.49411" lon="0.07104">
        <ele>21</ele>
        <time>2013-04-29T00:38:43Z</time>
      </trkpt>
      <trkpt lat="44.49935" lon="0.07461">
        <ele>18</ele>
        <time>2013-04-29T00:40:01Z</time>
      </trkpt>
      <trkpt lat="44.49931" lon="0.08038">
        <ele>19</ele>
        <time>2013-04-29T00:40:59Z</time>
      </trkpt>
      <trkpt lat="44.49909" lon="0.08644">
        <ele>18</ele>
        <time>2013-04-29T00:41:56Z</time>
      </trkpt>
      <trkpt lat="44.49864" lon="0.08962">
        <ele>17</ele>
        <time>2013-04-29T00:42:27Z</time>
      </trkpt>
      <trkpt lat="44.49748" lon="0.09477">
        <ele>21</ele>
        <time>2013-04-29T00:43:28Z</time>
      </trkpt>
      <trkpt lat="44.49674" lon="0.09729">
        <ele>25</ele>
        <time>2013-04-29T00:44:04Z</time>
      </trkpt>
      <trkpt lat="44.49578" lon="0.09982">
        <ele>20</ele>
        <time>2013-04-29T00:44:31Z</time>
      </trkpt>
      <trkpt lat="44.49512" lon="0.10128">
        <ele>22</ele>
        <time>2013-04-29T00:44:52Z</time>
      </trkpt>
      <trkpt lat="44.49409" lon="0.10335">
        <ele>21</ele>
        <time>2013-04-29T00:45:16Z</time>
      </trkpt>
      <trkpt lat="44.4932" lon="0.10496">
        <ele>22</ele>
        <time>2013-04-29T00:45:38Z</time>
      </trkpt>
      <trkpt lat="44.48911" lon="0.11183">
        <ele>21</ele>
        <time>2013-04-29T00:47:04Z</time>
      </trkpt>
      <trkpt lat="44.48869" lon="0.11624">
        <ele>19</ele>
        <time>2013-04-29T00:47:46Z</time>
      </trkpt>
      <trkpt lat="44.48866" lon="0.11688">
        <ele>19</ele>
        <time>2013-04-29T00:47:52Z</time>
      </trkpt>
      <trkpt lat="44.48891" lon="0.1275">
        <ele>21</ele>
        <time>2013-04-29T00:49:38Z</time>
      </trkpt>
      <trkpt lat="44.489" lon="0.12911">
        <ele>21</ele>
        <time>2013-04-29T00:49:54Z</time>
      </trkpt>
      <trkpt lat="44.48919" lon="0.13112">
        <ele>20</ele>
        <time>2013-04-29T00:50:13Z</time>
      </trkpt>
      <trkpt lat="44.48942" lon="0.13247">
        <ele>18</ele>
        <time>2013-04-29T00:50:26Z</time>
      </trkpt>
      <trkpt lat="44.48953" lon="0.13339">
        <ele>18</ele>
        <time>2013-04-29T00:50:36Z</time>
      </trkpt>
      <trkpt lat="44.48982" lon="0.13421">
        <ele>19</ele>
        <time>2013-04-29T00:50:46Z</time>
      </trkpt>
      <trkpt lat="44.49299" lon="0.14813">
        <ele>20</ele>
        <time>2013-04-29T00:53:08Z</time>
      </trkpt>
      <trkpt lat="44.49304" lon="0.14858">
        <ele>20</ele>
        <time>2013-04-29T00:53:14Z</time>
      </trkpt>
      <trkpt lat="44.49303" lon="0.14885">
        <ele>21</ele>
        <time>2013-04-29T00:53:17Z</time>
      </trkpt>
      <trkpt lat="44.49286" lon="0.14943">
        <ele>22</ele>
        <time>2013-04-29T00:53:25Z</time>
      </trkpt>
      <trkpt lat="44.49275" lon="0.1495">
        <ele>22</ele>
        <time>2013-04-29T00:53:27Z</time>
      </trkpt>
      <trkpt lat="44.49267" lon="0.14972">
        <ele>22</ele>
        <time>2013-04-29T00:53:30Z</time>
      </trkpt>
      <trkpt lat="44.49282" lon="0.1503">
        <ele>22</ele>
        <time>2013-04-29T00:53:36Z</time>
      </trkpt>
      <trkpt lat="44.49296" lon="0.15052">
        <ele>22</ele>
        <time>2013-04-29T00:53:39Z</time>
      </trkpt>
      <trkpt lat="44.49317" lon="0.1506">
        <ele>22</ele>
        <time>2013-04-29T00:53:43Z</time>
      </trkpt>
      <trkpt lat="44.49363" lon="0.15049">
        <ele>23</ele>
        <time>2013-04-29T00:53:50Z</time>
      </trkpt>
      <trkpt lat="44.49396" lon="0.15052">
        <ele>23</ele>
        <time>2013-04-29T00:53:54Z</time>
      </trkpt>
      <trkpt lat="44.49425" lon="0.15066">
        <ele>23</ele>
        <time>2013-04-29T00:53:58Z</time>
      </trkpt>
      <trkpt lat="44.49461" lon="0.15096">
        <ele>23</ele>
        <time>2013-04-29T00:54:04Z</time>
      </trkpt>
      <trkpt lat="44.4996" lon="0.15677">
        <ele>22</ele>
        <time>2013-04-29T00:55:30Z</time>
      </trkpt>
      <trkpt lat="44.50138" lon="0.15899">
        <ele>33</ele>
        <time>2013-04-29T00:56:29Z</time>
      </trkpt>
      <trkpt lat="44.5014" lon="0.15895">
        <ele>33</ele>
        <time>2013-04-29T00:56:29Z</time>
      </trkpt>
      <trkpt lat="44.5014" lon="0.15895">
        <ele>33</ele>
        <time>2013-04-29T00:56:30Z</time>
      </trkpt>
      <trkpt lat="44.50138" lon="0.15899">
        <ele>32</ele>
        <time>2013-04-29T00:56:31Z</time>
      </trkpt>
      <trkpt lat="44.50242" lon="0.16009">
        <ele>32</ele>
        <time>2013-04-29T00:56:48Z</time>
      </trkpt>
      <trkpt lat="44.5026" lon="0.16034">
        <ele>32</ele>
        <time>2013-04-29T00:56:52Z</time>
      </trkpt>
      <trkpt lat="44.50312" lon="0.16198">
        <ele>33</ele>
        <time>2013-04-29T00:57:11Z</time>
      </trkpt>
      <trkpt lat="44.50394" lon="0.16324">
        <ele>32</ele>
        <time>2013-04-29T00:57:27Z</time>
      </trkpt>
      <trkpt lat="44.50405" lon="0.16378">
        <ele>32</ele>
        <time>2013-04-29T00:57:33Z</time>
      </trkpt>
      <trkpt lat="44.50383" lon="0.16467">
        <ele>33</ele>
        <time>2013-04-29T00:57:44Z</time>
      </trkpt>
      <trkpt lat="44.50315" lon="0.16684">
        <ele>32</ele>
        <time>2013-04-29T00:58:06Z</time>
      </trkpt>
      <trkpt lat="44.50276" lon="0.16723">
        <ele>32</ele>
        <time>2013-04-29T00:58:14Z</time>
      </trkpt>
      <trkpt lat="44.50086" lon="0.16873">
        <ele>35</ele>
        <time>2013-04-29T00:58:49Z</time>
      </trkpt>
      <trkpt lat="44.50119" lon="0.16945">
        <ele>34</ele>
        <time>2013-04-29T00:58:57Z</time>
      </trkpt>
      <trkpt lat="44.50476" lon="0.18021">
        <ele>30</ele>
        <time>2013-04-29T01:00:50Z</time>
      </trkpt>
      <trkpt lat="44.50492" lon="0.1809">
        <ele>31</ele>
        <time>2013-04-29T01:01:01Z</time>
      </trkpt>
      <trkpt lat="44.50488" lon="0.18122">
        <ele>32</ele>
        <time>2013-04-29T01:01:05Z</time>
      </trkpt>
      <trkpt lat="44.50491" lon="0.18136">
        <ele>32</ele>
        <time>2013-04-29T01:01:07Z</time>
      </trkpt>
      <trkpt lat="44.50511" lon="0.18158">
        <ele>33</ele>
        <time>2013-04-29T01:01:12Z</time>
      </trkpt>
      <trkpt lat="44.50553" lon="0.18257">
        <ele>33</ele>
        <time>2013-04-29T01:01:24Z</time>
      </trkpt>
      <trkpt lat="44.50839" lon="0.19125">
        <ele>37</ele>
        <time>2013-04-29T01:03:04Z</time>
      </trkpt>
      <trkpt lat="44.5085" lon="0.19179">
        <ele>37</ele>
        <time>2013-04-29T01:03:10Z</time>
      </trkpt>
      <trkpt lat="44.50847" lon="0.19333">
        <ele>38</ele>
        <time>2013-04-29T01:03:26Z</time>
      </trkpt>
      <trkpt lat="44.50864" lon="0.19418">
        <ele>38</ele>
        <time>2013-04-29T01:03:35Z</time>
      </trkpt>
      <trkpt lat="44.50866" lon="0.19441">
        <ele>38</ele>
        <time>2013-04-29T01:03:37Z</time>
      </trkpt>
      <trkpt lat="44.50877" lon="0.19454">
        <ele>38</ele>
        <time>2013-04-29T01:03:39Z</time>
      </trkpt>
      <trkpt lat="44.50889" lon="0.19457">
        <ele>38</ele>
        <time>2013-04-29T01:03:41Z</time>
      </trkpt>
      <trkpt lat="44.50901" lon="0.19451">
        <ele>38</ele>
        <time>2013-04-29T01:03:43Z</time>
      </trkpt>
      <trkpt lat="44.50906" lon="0.1944">
        <ele>38</ele>
        <time>2013-04-29T01:03:44Z</time>
      </trkpt>
      <trkpt lat="44.50915" lon="0.19442">
        <ele>38</ele>
        <time>2013-04-29T01:03:45Z</time>
      </trkpt>
      <trkpt lat="44.50934" lon="0.19455">
        <ele>38</ele>
        <time>2013-04-29T01:03:48Z</time>
      </trkpt>
      <trkpt lat="44.50953" lon="0.19476">
        <ele>38</ele>
        <time>2013-04-29T01:03:52Z</time>
      </trkpt>
      <trkpt lat="44.51214" lon="0.20277">
        <ele>41</ele>
        <time>2013-04-29T01:05:22Z</time>
      </trkpt>
      <trkpt lat="44.51573" lon="0.21351">
        <ele>55</ele>
        <time>2013-04-29T01:07:49Z</time>
      </trkpt>
      <trkpt lat="44.51601" lon="0.2141">
        <ele>55</ele>
        <time>2013-04-29T01:07:57Z</time>
      </trkpt>
      <trkpt lat="44.5177" lon="0.21693">
        <ele>60</ele>
        <time>2013-04-29T01:08:42Z</time>
      </trkpt>
      <trkpt lat="44.51807" lon="0.21773">
        <ele>61</ele>
        <time>2013-04-29T01:08:56Z</time>
      </trkpt>
      <trkpt lat="44.51866" lon="0.21948">
        <ele>66</ele>
        <time>2013-04-29T01:09:24Z</time>
      </trkpt>
      <trkpt lat="44.51919" lon="0.22268">
        <ele>78</ele>
        <time>2013-04-29T01:10:24Z</time>
      </trkpt>
      <trkpt lat="44.51929" lon="0.22309">
        <ele>80</ele>
        <time>2013-04-29T01:10:35Z</time>
      </trkpt>
      <trkpt lat="44.51948" lon="0.22351">
        <ele>83</ele>
        <time>2013-04-29T01:10:47Z</time>
      </trkpt>
      <trkpt lat="44.52047" lon="0.22484">
        <ele>95</ele>
        <time>2013-04-29T01:11:32Z</time>
      </trkpt>
      <trkpt lat="44.52086" lon="0.22523">
        <ele>97</ele>
        <time>2013-04-29T01:11:45Z</time>
      </trkpt>
      <trkpt lat="44.52117" lon="0.22537">
        <ele>99</ele>
        <time>2013-04-29T01:11:54Z</time>
      </trkpt>
      <trkpt lat="44.52212" lon="0.22542">
        <ele>105</ele>
        <time>2013-04-29T01:12:20Z</time>
      </trkpt>
      <trkpt lat="44.52241" lon="0.22555">
        <ele>106</ele>
        <time>2013-04-29T01:12:29Z</time>
      </trkpt>
      <trkpt lat="44.52262" lon="0.22571">
        <ele>108</ele>
        <time>2013-04-29T01:12:35Z</time>
      </trkpt>
      <trkpt lat="44.52304" lon="0.22623">
        <ele>112</ele>
        <time>2013-04-29T01:12:51Z</time>
      </trkpt>
      <trkpt lat="44.52329" lon="0.22663">
        <ele>113</ele>
        <time>2013-04-29T01:13:01Z</time>
      </trkpt>
      <trkpt lat="44.52389" lon="0.22803">
        <ele>119</ele>
        <time>2013-04-29T01:13:29Z</time>
      </trkpt>
      <trkpt lat="44.52416" lon="0.22836">
        <ele>118</ele>
        <time>2013-04-29T01:13:34Z</time>
      </trkpt>
      <trkpt lat="44.52497" lon="0.2291">
        <ele>118</ele>
        <time>2013-04-29T01:13:47Z</time>
      </trkpt>
      <trkpt lat="44.52538" lon="0.22931">
        <ele>117</ele>
        <time>2013-04-29T01:13:52Z</time>
      </trkpt>
      <trkpt lat="44.52586" lon="0.22941">
        <ele>116</ele>
        <time>2013-04-29T01:13:59Z</time>
      </trkpt>
      <trkpt lat="44.52775" lon="0.22922">
        <ele>113</ele>
        <time>2013-04-29T01:14:24Z</time>
      </trkpt>
      <trkpt lat="44.52804" lon="0.22925">
        <ele>112</ele>
        <time>2013-04-29T01:14:28Z</time>
      </trkpt>
      <trkpt lat="44.52829" lon="0.22934">
        <ele>112</ele>
        <time>2013-04-29T01:14:31Z</time>
      </trkpt>
      <trkpt lat="44.52875" lon="0.22961">
        <ele>112</ele>
        <time>2013-04-29T01:14:38Z</time>
      </trkpt>
      <trkpt lat="44.52911" lon="0.22994">
        <ele>112</ele>
        <time>2013-04-29T01:14:46Z</time>
      </trkpt>
      <trkpt lat="44.5294" lon="0.23028">
        <ele>113</ele>
        <time>2013-04-29T01:14:53Z</time>
      </trkpt>
      <trkpt lat="44.53171" lon="0.23467">
        <ele>122</ele>
        <time>2013-04-29T01:16:05Z</time>
      </trkpt>
      <trkpt lat="44.53193" lon="0.235">
        <ele>120</ele>
        <time>2013-04-29T01:16:09Z</time>
      </trkpt>
      <trkpt lat="44.53282" lon="0.23601">
        <ele>113</ele>
        <time>2013-04-29T01:16:24Z</time>
      </trkpt>
      <trkpt lat="44.53307" lon="0.23647">
        <ele>112</ele>
        <time>2013-04-29T01:16:30Z</time>
      </trkpt>
      <trkpt lat="44.53325" lon="0.23716">
        <ele>111</ele>
        <time>2013-04-29T01:16:37Z</time>
      </trkpt>
      <trkpt lat="44.53351" lon="0.23933">
        <ele>114</ele>
        <time>2013-04-29T01:17:05Z</time>
      </trkpt>
      <trkpt lat="44.53399" lon="0.24127">
        <ele>117</ele>
        <time>2013-04-29T01:17:32Z</time>
      </trkpt>
      <trkpt lat="44.5348" lon="0.24425">
        <ele>120</ele>
        <time>2013-04-29T01:18:09Z</time>
      </trkpt>
      <trkpt lat="44.53509" lon="0.24488">
        <ele>117</ele>
        <time>2013-04-29T01:18:17Z</time>
      </trkpt>
      <trkpt lat="44.5354" lon="0.24528">
        <ele>115</ele>
        <time>2013-04-29T01:18:22Z</time>
      </trkpt>
      <trkpt lat="44.5357" lon="0.24549">
        <ele>115</ele>
        <time>2013-04-29T01:18:27Z</time>
      </trkpt>
      <trkpt lat="44.53614" lon="0.24562">
        <ele>115</ele>
        <time>2013-04-29T01:18:34Z</time>
      </trkpt>
      <trkpt lat="44.54118" lon="0.24594">
        <ele>119</ele>
        <time>2013-04-29T01:19:50Z</time>
      </trkpt>
      <trkpt lat="44.54185" lon="0.24602">
        <ele>119</ele>
        <time>2013-04-29T01:20:00Z</time>
      </trkpt>
      <trkpt lat="44.5437" lon="0.24634">
        <ele>121</ele>
        <time>2013-04-29T01:20:28Z</time>
      </trkpt>
      <trkpt lat="44.54471" lon="0.24674">
        <ele>123</ele>
        <time>2013-04-29T01:20:47Z</time>
      </trkpt>
      <trkpt lat="44.54548" lon="0.2472">
        <ele>127</ele>
        <time>2013-04-29T01:21:08Z</time>
      </trkpt>
      <trkpt lat="44.5458" lon="0.24747">
        <ele>129</ele>
        <time>2013-04-29T01:21:18Z</time>
      </trkpt>
      <trkpt lat="44.54643" lon="0.24823">
        <ele>132</ele>
        <time>2013-04-29T01:21:36Z</time>
      </trkpt>
      <trkpt lat="44.54643" lon="0.24822">
        <ele>132</ele>
        <time>2013-04-29T01:21:36Z</time>
      </trkpt>
      <trkpt lat="44.54738" lon="0.24942">
        <ele>136</ele>
        <time>2013-04-29T01:22:03Z</time>
      </trkpt>
      <trkpt lat="44.54752" lon="0.24972">
        <ele>134</ele>
        <time>2013-04-29T01:22:06Z</time>
      </trkpt>
      <trkpt lat="44.54758" lon="0.25066">
        <ele>132</ele>
        <time>2013-04-29T01:22:15Z</time>
      </trkpt>
      <trkpt lat="44.54771" lon="0.25101">
        <ele>129</ele>
        <time>2013-04-29T01:22:19Z</time>
      </trkpt>
      <trkpt lat="44.5484" lon="0.25183">
        <ele>122</ele>
        <time>2013-04-29T01:22:31Z</time>
      </trkpt>
      <trkpt lat="44.54863" lon="0.25217">
        <ele>121</ele>
        <time>2013-04-29T01:22:36Z</time>
      </trkpt>
      <trkpt lat="44.55105" lon="0.25673">
        <ele>118</ele>
        <time>2013-04-29T01:23:30Z</time>
      </trkpt>
      <trkpt lat="44.55215" lon="0.25853">
        <ele>113</ele>
        <time>2013-04-29T01:23:52Z</time>
      </trkpt>
      <trkpt lat="44.5527" lon="0.25926">
        <ele>111</ele>
        <time>2013-04-29T01:24:02Z</time>
      </trkpt>
      <trkpt lat="44.55346" lon="0.26006">
        <ele>109</ele>
        <time>2013-04-29T01:24:15Z</time>
      </trkpt>
      <trkpt lat="44.55388" lon="0.26043">
        <ele>110</ele>
        <time>2013-04-29T01:24:26Z</time>
      </trkpt>
      <trkpt lat="44.55477" lon="0.26104">
        <ele>114</ele>
        <time>2013-04-29T01:24:47Z</time>
      </trkpt>
      <trkpt lat="44.55557" lon="0.26147">
        <ele>114</ele>
        <time>2013-04-29T01:25:00Z</time>
      </trkpt>
      <trkpt lat="44.55619" lon="0.26171">
        <ele>115</ele>
        <time>2013-04-29T01:25:09Z</time>
      </trkpt>
      <trkpt lat="44.5577" lon="0.26203">
        <ele>113</ele>
        <time>2013-04-29T01:25:30Z</time>
      </trkpt>
      <trkpt lat="44.55793" lon="0.26215">
        <ele>113</ele>
        <time>2013-04-29T01:25:33Z</time>
      </trkpt>
      <trkpt lat="44.55812" lon="0.26233">
        <ele>113</ele>
        <time>2013-04-29T01:25:37Z</time>
      </trkpt>
      <trkpt lat="44.5583" lon="0.26269">
        <ele>113</ele>
        <time>2013-04-29T01:25:42Z</time>
      </trkpt>
      <trkpt lat="44.55855" lon="0.26353">
        <ele>114</ele>
        <time>2013-04-29T01:25:51Z</time>
      </trkpt>
      <trkpt lat="44.55878" lon="0.26395">
        <ele>114</ele>
        <time>2013-04-29T01:25:57Z</time>
      </trkpt>
      <trkpt lat="44.55919" lon="0.26447">
        <ele>115</ele>
        <time>2013-04-29T01:26:06Z</time>
      </trkpt>
      <trkpt lat="44.56102" lon="0.26634">
        <ele>112</ele>
        <time>2013-04-29T01:26:36Z</time>
      </trkpt>
      <trkpt lat="44.56144" lon="0.2669">
        <ele>111</ele>
        <time>2013-04-29T01:26:44Z</time>
      </trkpt>
      <trkpt lat="44.56756" lon="0.27674">
        <ele>109</ele>
        <time>2013-04-29T01:28:48Z</time>
      </trkpt>
      <trkpt lat="44.56797" lon="0.27763">
        <ele>110</ele>
        <time>2013-04-29T01:29:02Z</time>
      </trkpt>
      <trkpt lat="44.56867" lon="0.28028">
        <ele>114</ele>
        <time>2013-04-29T01:29:37Z</time>
      </trkpt>
      <trkpt lat="44.56876" lon="0.28103">
        <ele>115</ele>
        <time>2013-04-29T01:29:48Z</time>
      </trkpt>
      <trkpt lat="44.5688" lon="0.28191">
        <ele>117</ele>
        <time>2013-04-29T01:30:00Z</time>
      </trkpt>
      <trkpt lat="44.56872" lon="0.28292">
        <ele>120</ele>
        <time>2013-04-29T01:30:18Z</time>
      </trkpt>
      <trkpt lat="44.56839" lon="0.28462">
        <ele>126</ele>
        <time>2013-04-29T01:30:48Z</time>
      </trkpt>
      <trkpt lat="44.56828" lon="0.28503">
        <ele>125</ele>
        <time>2013-04-29T01:30:52Z</time>
      </trkpt>
      <trkpt lat="44.56753" lon="0.28619">
        <ele>125</ele>
        <time>2013-04-29T01:31:07Z</time>
      </trkpt>
      <trkpt lat="44.567" lon="0.2871">
        <ele>120</ele>
        <time>2013-04-29T01:31:19Z</time>
      </trkpt>
      <trkpt lat="44.56644" lon="0.28829">
        <ele>115</ele>
        <time>2013-04-29T01:31:32Z</time>
      </trkpt>
      <trkpt lat="44.56634" lon="0.28867">
        <ele>113</ele>
        <time>2013-04-29T01:31:36Z</time>
      </trkpt>
      <trkpt lat="44.56609" lon="0.29002">
        <ele>108</ele>
        <time>2013-04-29T01:31:49Z</time>
      </trkpt>
      <trkpt lat="44.56604" lon="0.29037">
        <ele>106</ele>
        <time>2013-04-29T01:31:53Z</time>
      </trkpt>
      <trkpt lat="44.566" lon="0.29126">
        <ele>102</ele>
        <time>2013-04-29T01:32:01Z</time>
      </trkpt>
      <trkpt lat="44.5661" lon="0.29218">
        <ele>98</ele>
        <time>2013-04-29T01:32:10Z</time>
      </trkpt>
      <trkpt lat="44.56617" lon="0.29242">
        <ele>97</ele>
        <time>2013-04-29T01:32:12Z</time>
      </trkpt>
      <trkpt lat="44.56636" lon="0.29288">
        <ele>96</ele>
        <time>2013-04-29T01:32:18Z</time>
      </trkpt>
      <trkpt lat="44.56691" lon="0.2939">
        <ele>94</ele>
        <time>2013-04-29T01:32:30Z</time>
      </trkpt>
      <trkpt lat="44.56707" lon="0.29459">
        <ele>91</ele>
        <time>2013-04-29T01:32:37Z</time>
      </trkpt>
      <trkpt lat="44.56708" lon="0.29524">
        <ele>89</ele>
        <time>2013-04-29T01:32:43Z</time>
      </trkpt>
      <trkpt lat="44.56699" lon="0.29783">
        <ele>83</ele>
        <time>2013-04-29T01:33:07Z</time>
      </trkpt>
      <trkpt lat="44.56714" lon="0.29988">
        <ele>83</ele>
        <time>2013-04-29T01:33:27Z</time>
      </trkpt>
      <trkpt lat="44.56716" lon="0.30322">
        <ele>75</ele>
        <time>2013-04-29T01:33:59Z</time>
      </trkpt>
      <trkpt lat="44.56763" lon="0.30802">
        <ele>63</ele>
        <time>2013-04-29T01:34:45Z</time>
      </trkpt>
      <trkpt lat="44.56775" lon="0.3086">
        <ele>63</ele>
        <time>2013-04-29T01:34:52Z</time>
      </trkpt>
      <trkpt lat="44.5679" lon="0.30898">
        <ele>64</ele>
        <time>2013-04-29T01:34:57Z</time>
      </trkpt>
      <trkpt lat="44.5679" lon="0.30898">
        <ele>64</ele>
        <time>2013-04-29T01:34:58Z</time>
      </trkpt>
      <trkpt lat="44.56815" lon="0.3094">
        <ele>66</ele>
        <time>2013-04-29T01:35:11Z</time>
      </trkpt>
      <trkpt lat="44.56946" lon="0.31124">
        <ele>81</ele>
        <time>2013-04-29T01:36:09Z</time>
      </trkpt>
      <trkpt lat="44.57008" lon="0.31198">
        <ele>88</ele>
        <time>2013-04-29T01:36:37Z</time>
      </trkpt>
      <trkpt lat="44.57065" lon="0.31249">
        <ele>94</ele>
        <time>2013-04-29T01:37:00Z</time>
      </trkpt>
      <trkpt lat="44.57244" lon="0.31369">
        <ele>98</ele>
        <time>2013-04-29T01:37:36Z</time>
      </trkpt>
      <trkpt lat="44.57315" lon="0.31429">
        <ele>101</ele>
        <time>2013-04-29T01:37:56Z</time>
      </trkpt>
      <trkpt lat="44.57468" lon="0.31589">
        <ele>110</ele>
        <time>2013-04-29T01:38:42Z</time>
      </trkpt>
      <trkpt lat="44.57506" lon="0.31645">
        <ele>109</ele>
        <time>2013-04-29T01:38:49Z</time>
      </trkpt>
      <trkpt lat="44.57524" lon="0.31722">
        <ele>108</ele>
        <time>2013-04-29T01:38:57Z</time>
      </trkpt>
      <trkpt lat="44.57537" lon="0.31835">
        <ele>108</ele>
        <time>2013-04-29T01:39:08Z</time>
      </trkpt>
      <trkpt lat="44.57565" lon="0.31926">
        <ele>108</ele>
        <time>2013-04-29T01:39:17Z</time>
      </trkpt>
      <trkpt lat="44.57598" lon="0.32107">
        <ele>105</ele>
        <time>2013-04-29T01:39:35Z</time>
      </trkpt>
      <trkpt lat="44.57612" lon="0.32336">
        <ele>106</ele>
        <time>2013-04-29T01:39:59Z</time>
      </trkpt>
      <trkpt lat="44.5762" lon="0.32377">
        <ele>105</ele>
        <time>2013-04-29T01:40:03Z</time>
      </trkpt>
      <trkpt lat="44.57636" lon="0.32433">
        <ele>104</ele>
        <time>2013-04-29T01:40:09Z</time>
      </trkpt>
      <trkpt lat="44.57684" lon="0.32576">
        <ele>102</ele>
        <time>2013-04-29T01:40:24Z</time>
      </trkpt>
      <trkpt lat="44.57709" lon="0.32629">
        <ele>101</ele>
        <time>2013-04-29T01:40:30Z</time>
      </trkpt>
      <trkpt lat="44.57743" lon="0.32675">
        <ele>101</ele>
        <time>2013-04-29T01:40:36Z</time>
      </trkpt>
      <trkpt lat="44.578" lon="0.32727">
        <ele>105</ele>
        <time>2013-04-29T01:40:57Z</time>
      </trkpt>
      <trkpt lat="44.57834" lon="0.32765">
        <ele>109</ele>
        <time>2013-04-29T01:41:10Z</time>
      </trkpt>
      <trkpt lat="44.57846" lon="0.32784">
        <ele>109</ele>
        <time>2013-04-29T01:41:13Z</time>
      </trkpt>
      <trkpt lat="44.57898" lon="0.32891">
        <ele>111</ele>
        <time>2013-04-29T01:41:30Z</time>
      </trkpt>
      <trkpt lat="44.57898" lon="0.32891">
        <ele>111</ele>
        <time>2013-04-29T01:41:31Z</time>
      </trkpt>
      <trkpt lat="44.57933" lon="0.32964">
        <ele>103</ele>
        <time>2013-04-29T01:41:39Z</time>
      </trkpt>
      <trkpt lat="44.57937" lon="0.32995">
        <ele>101</ele>
        <time>2013-04-29T01:41:42Z</time>
      </trkpt>
      <trkpt lat="44.57929" lon="0.33033">
        <ele>98</ele>
        <time>2013-04-29T01:41:46Z</time>
      </trkpt>
      <trkpt lat="44.58161" lon="0.33168">
        <ele>95</ele>
        <time>2013-04-29T01:42:20Z</time>
      </trkpt>
      <trkpt lat="44.58217" lon="0.33206">
        <ele>95</ele>
        <time>2013-04-29T01:42:28Z</time>
      </trkpt>
      <trkpt lat="44.58273" lon="0.33262">
        <ele>95</ele>
        <time>2013-04-29T01:42:37Z</time>
      </trkpt>
      <trkpt lat="44.58473" lon="0.3349">
        <ele>86</ele>
        <time>2013-04-29T01:43:11Z</time>
      </trkpt>
      <trkpt lat="44.58531" lon="0.33562">
        <ele>83</ele>
        <time>2013-04-29T01:43:22Z</time>
      </trkpt>
      <trkpt lat="44.58572" lon="0.33631">
        <ele>81</ele>
        <time>2013-04-29T01:43:30Z</time>
      </trkpt>
      <trkpt lat="44.58606" lon="0.3371">
        <ele>79</ele>
        <time>2013-04-29T01:43:39Z</time>
      </trkpt>
      <trkpt lat="44.58853" lon="0.34389">
        <ele>70</ele>
        <time>2013-04-29T01:44:52Z</time>
      </trkpt>
      <trkpt lat="44.58911" lon="0.34509">
        <ele>82</ele>
        <time>2013-04-29T01:45:34Z</time>
      </trkpt>
      <trkpt lat="44.58977" lon="0.346">
        <ele>91</ele>
        <time>2013-04-29T01:46:08Z</time>
      </trkpt>
      <trkpt lat="44.5916" lon="0.3482">
        <ele>86</ele>
        <time>2013-04-29T01:46:40Z</time>
      </trkpt>
      <trkpt lat="44.59332" lon="0.34975">
        <ele>80</ele>
        <time>2013-04-29T01:47:08Z</time>
      </trkpt>
      <trkpt lat="44.59537" lon="0.35227">
        <ele>73</ele>
        <time>2013-04-29T01:47:44Z</time>
      </trkpt>
      <trkpt lat="44.59577" lon="0.35288">
        <ele>73</ele>
        <time>2013-04-29T01:47:54Z</time>
      </trkpt>
      <trkpt lat="44.59631" lon="0.35425">
        <ele>75</ele>
        <time>2013-04-29T01:48:12Z</time>
      </trkpt>
      <trkpt lat="44.5967" lon="0.35493">
        <ele>73</ele>
        <time>2013-04-29T01:48:20Z</time>
      </trkpt>
      <trkpt lat="44.59828" lon="0.35728">
        <ele>69</ele>
        <time>2013-04-29T01:48:51Z</time>
      </trkpt>
      <trkpt lat="44.59899" lon="0.35814">
        <ele>65</ele>
        <time>2013-04-29T01:49:03Z</time>
      </trkpt>
      <trkpt lat="44.59981" lon="0.35902">
        <ele>59</ele>
        <time>2013-04-29T01:49:17Z</time>
      </trkpt>
      <trkpt lat="44.60013" lon="0.35946">
        <ele>59</ele>
        <time>2013-04-29T01:49:23Z</time>
      </trkpt>
      <trkpt lat="44.60028" lon="0.35975">
        <ele>59</ele>
        <time>2013-04-29T01:49:26Z</time>
      </trkpt>
      <trkpt lat="44.6003" lon="0.35986">
        <ele>59</ele>
        <time>2013-04-29T01:49:27Z</time>
      </trkpt>
      <trkpt lat="44.60037" lon="0.35995">
        <ele>59</ele>
        <time>2013-04-29T01:49:29Z</time>
      </trkpt>
      <trkpt lat="44.60044" lon="0.35997">
        <ele>59</ele>
        <time>2013-04-29T01:49:30Z</time>
      </trkpt>
      <trkpt lat="44.60053" lon="0.35993">
        <ele>58</ele>
        <time>2013-04-29T01:49:31Z</time>
      </trkpt>
      <trkpt lat="44.60122" lon="0.35858">
        <ele>55</ele>
        <time>2013-04-29T01:49:47Z</time>
      </trkpt>
      <trkpt lat="44.60134" lon="0.3585">
        <ele>55</ele>
        <time>2013-04-29T01:49:49Z</time>
      </trkpt>
      <trkpt lat="44.60149" lon="0.35857">
        <ele>55</ele>
        <time>2013-04-29T01:49:51Z</time>
      </trkpt>
      <trkpt lat="44.60243" lon="0.35948">
        <ele>56</ele>
        <time>2013-04-29T01:50:08Z</time>
      </trkpt>
      <trkpt lat="44.60276" lon="0.35987">
        <ele>54</ele>
        <time>2013-04-29T01:50:14Z</time>
      </trkpt>
      <trkpt lat="44.60341" lon="0.36049">
        <ele>53</ele>
        <time>2013-04-29T01:50:25Z</time>
      </trkpt>
      <trkpt lat="44.60347" lon="0.36059">
        <ele>53</ele>
        <time>2013-04-29T01:50:26Z</time>
      </trkpt>
      <trkpt lat="44.60348" lon="0.3607">
        <ele>53</ele>
        <time>2013-04-29T01:50:27Z</time>
      </trkpt>
      <trkpt lat="44.60205" lon="0.36407">
        <ele>54</ele>
        <time>2013-04-29T01:51:07Z</time>
      </trkpt>
      <trkpt lat="44.60244" lon="0.36438">
        <ele>53</ele>
        <time>2013-04-29T01:51:13Z</time>
      </trkpt>
      <trkpt lat="44.60278" lon="0.36485">
        <ele>52</ele>
        <time>2013-04-29T01:51:19Z</time>
      </trkpt>
      <trkpt lat="44.60299" lon="0.36522">
        <ele>53</ele>
        <time>2013-04-29T01:51:26Z</time>
      </trkpt>
      <trkpt lat="44.60299" lon="0.36521">
        <ele>53</ele>
        <time>2013-04-29T01:51:26Z</time>
      </trkpt>
      <trkpt lat="44.60474" lon="0.36836">
        <ele>61</ele>
        <time>2013-04-29T01:52:23Z</time>
      </trkpt>
      <trkpt lat="44.60493" lon="0.36882">
        <ele>62</ele>
        <time>2013-04-29T01:52:33Z</time>
      </trkpt>
      <trkpt lat="44.60531" lon="0.37018">
        <ele>68</ele>
        <time>2013-04-29T01:52:59Z</time>
      </trkpt>
      <trkpt lat="44.60552" lon="0.3706">
        <ele>68</ele>
        <time>2013-04-29T01:53:05Z</time>
      </trkpt>
      <trkpt lat="44.60585" lon="0.37101">
        <ele>68</ele>
        <time>2013-04-29T01:53:12Z</time>
      </trkpt>
      <trkpt lat="44.60734" lon="0.37226">
        <ele>71</ele>
        <time>2013-04-29T01:53:40Z</time>
      </trkpt>
      <trkpt lat="44.60768" lon="0.37259">
        <ele>71</ele>
        <time>2013-04-29T01:53:46Z</time>
      </trkpt>
      <trkpt lat="44.60794" lon="0.37291">
        <ele>71</ele>
        <time>2013-04-29T01:53:50Z</time>
      </trkpt>
      <trkpt lat="44.60808" lon="0.37323">
        <ele>71</ele>
        <time>2013-04-29T01:53:54Z</time>
      </trkpt>
      <trkpt lat="44.60828" lon="0.3744">
        <ele>71</ele>
        <time>2013-04-29T01:54:07Z</time>
      </trkpt>
      <trkpt lat="44.60817" lon="0.37771">
        <ele>74</ele>
        <time>2013-04-29T01:54:44Z</time>
      </trkpt>
      <trkpt lat="44.60814" lon="0.37799">
        <ele>74</ele>
        <time>2013-04-29T01:54:48Z</time>
      </trkpt>
      <trkpt lat="44.60802" lon="0.37843">
        <ele>75</ele>
        <time>2013-04-29T01:54:54Z</time>
      </trkpt>
      <trkpt lat="44.60744" lon="0.37983">
        <ele>78</ele>
        <time>2013-04-29T01:55:16Z</time>
      </trkpt>
      <trkpt lat="44.60592" lon="0.38245">
        <ele>87</ele>
        <time>2013-04-29T01:56:10Z</time>
      </trkpt>
      <trkpt lat="44.60579" lon="0.3827">
        <ele>86</ele>
        <time>2013-04-29T01:56:13Z</time>
      </trkpt>
      <trkpt lat="44.60571" lon="0.38308">
        <ele>86</ele>
        <time>2013-04-29T01:56:17Z</time>
      </trkpt>
      <trkpt lat="44.60572" lon="0.38357">
        <ele>85</ele>
        <time>2013-04-29T01:56:21Z</time>
      </trkpt>
      <trkpt lat="44.60579" lon="0.38386">
        <ele>85</ele>
        <time>2013-04-29T01:56:24Z</time>
      </trkpt>
      <trkpt lat="44.60643" lon="0.38514">
        <ele>84</ele>
        <time>2013-04-29T01:56:39Z</time>
      </trkpt>
      <trkpt lat="44.60675" lon="0.38639">
        <ele>86</ele>
        <time>2013-04-29T01:56:56Z</time>
      </trkpt>
      <trkpt lat="44.60714" lon="0.38896">
        <ele>85</ele>
        <time>2013-04-29T01:57:21Z</time>
      </trkpt>
      <trkpt lat="44.60732" lon="0.39131">
        <ele>88</ele>
        <time>2013-04-29T01:57:51Z</time>
      </trkpt>
      <trkpt lat="44.60756" lon="0.39645">
        <ele>94</ele>
        <time>2013-04-29T01:58:54Z</time>
      </trkpt>
      <trkpt lat="44.60724" lon="0.39886">
        <ele>95</ele>
        <time>2013-04-29T01:59:20Z</time>
      </trkpt>
      <trkpt lat="44.60722" lon="0.3992">
        <ele>95</ele>
        <time>2013-04-29T01:59:24Z</time>
      </trkpt>
      <trkpt lat="44.60729" lon="0.39965">
        <ele>95</ele>
        <time>2013-04-29T01:59:29Z</time>
      </trkpt>
      <trkpt lat="44.60785" lon="0.40098">
        <ele>96</ele>
        <time>2013-04-29T01:59:45Z</time>
      </trkpt>
      <trkpt lat="44.60861" lon="0.40201">
        <ele>104</ele>
        <time>2013-04-29T02:00:18Z</time>
      </trkpt>
      <trkpt lat="44.60932" lon="0.40265">
        <ele>107</ele>
        <time>2013-04-29T02:00:39Z</time>
      </trkpt>
      <trkpt lat="44.60946" lon="0.40288">
        <ele>109</ele>
        <time>2013-04-29T02:00:44Z</time>
      </trkpt>
      <trkpt lat="44.60989" lon="0.40388">
        <ele>111</ele>
        <time>2013-04-29T02:01:01Z</time>
      </trkpt>
      <trkpt lat="44.61034" lon="0.40452">
        <ele>113</ele>
        <time>2013-04-29T02:01:14Z</time>
      </trkpt>
      <trkpt lat="44.61099" lon="0.40511">
        <ele>114</ele>
        <time>2013-04-29T02:01:29Z</time>
      </trkpt>
      <trkpt lat="44.61308" lon="0.40671">
        <ele>121</ele>
        <time>2013-04-29T02:02:15Z</time>
      </trkpt>
      <trkpt lat="44.61351" lon="0.40712">
        <ele>121</ele>
        <time>2013-04-29T02:02:23Z</time>
      </trkpt>
      <trkpt lat="44.61384" lon="0.40761">
        <ele>122</ele>
        <time>2013-04-29T02:02:31Z</time>
      </trkpt>
      <trkpt lat="44.61403" lon="0.40801">
        <ele>122</ele>
        <time>2013-04-29T02:02:37Z</time>
      </trkpt>
      <trkpt lat="44.61416" lon="0.40842">
        <ele>123</ele>
        <time>2013-04-29T02:02:42Z</time>
      </trkpt>
      <trkpt lat="44.61438" lon="0.40928">
        <ele>124</ele>
        <time>2013-04-29T02:02:53Z</time>
      </trkpt>
      <trkpt lat="44.6145" lon="0.41002">
        <ele>121</ele>
        <time>2013-04-29T02:03:00Z</time>
      </trkpt>
      <trkpt lat="44.61456" lon="0.41086">
        <ele>119</ele>
        <time>2013-04-29T02:03:08Z</time>
      </trkpt>
      <trkpt lat="44.61448" lon="0.4132">
        <ele>111</ele>
        <time>2013-04-29T02:03:31Z</time>
      </trkpt>
      <trkpt lat="44.61456" lon="0.41359">
        <ele>109</ele>
        <time>2013-04-29T02:03:34Z</time>
      </trkpt>
      <trkpt lat="44.61485" lon="0.41409">
        <ele>108</ele>
        <time>2013-04-29T02:03:41Z</time>
      </trkpt>
      <trkpt lat="44.61556" lon="0.41501">
        <ele>105</ele>
        <time>2013-04-29T02:03:53Z</time>
      </trkpt>
      <trkpt lat="44.61575" lon="0.41531">
        <ele>103</ele>
        <time>2013-04-29T02:03:57Z</time>
      </trkpt>
      <trkpt lat="44.61589" lon="0.41574">
        <ele>102</ele>
        <time>2013-04-29T02:04:02Z</time>
      </trkpt>
      <trkpt lat="44.61616" lon="0.41692">
        <ele>98</ele>
        <time>2013-04-29T02:04:14Z</time>
      </trkpt>
      <trkpt lat="44.61629" lon="0.41726">
        <ele>97</ele>
        <time>2013-04-29T02:04:17Z</time>
      </trkpt>
      <trkpt lat="44.62173" lon="0.42839">
        <ele>96</ele>
        <time>2013-04-29T02:06:26Z</time>
      </trkpt>
      <trkpt lat="44.62185" lon="0.42885">
        <ele>95</ele>
        <time>2013-04-29T02:06:30Z</time>
      </trkpt>
      <trkpt lat="44.6225" lon="0.43491">
        <ele>86</ele>
        <time>2013-04-29T02:07:29Z</time>
      </trkpt>
      <trkpt lat="44.62251" lon="0.43557">
        <ele>87</ele>
        <time>2013-04-29T02:07:38Z</time>
      </trkpt>
      <trkpt lat="44.62227" lon="0.43695">
        <ele>90</ele>
        <time>2013-04-29T02:07:58Z</time>
      </trkpt>
      <trkpt lat="44.62232" lon="0.43738">
        <ele>90</ele>
        <time>2013-04-29T02:08:03Z</time>
      </trkpt>
      <trkpt lat="44.6256" lon="0.44559">
        <ele>102</ele>
        <time>2013-04-29T02:10:00Z</time>
      </trkpt>
      <trkpt lat="44.62595" lon="0.44698">
        <ele>99</ele>
        <time>2013-04-29T02:10:14Z</time>
      </trkpt>
      <trkpt lat="44.62819" lon="0.45681">
        <ele>87</ele>
        <time>2013-04-29T02:11:53Z</time>
      </trkpt>
      <trkpt lat="44.62835" lon="0.45712">
        <ele>86</ele>
        <time>2013-04-29T02:11:56Z</time>
      </trkpt>
      <trkpt lat="44.62862" lon="0.4574">
        <ele>85</ele>
        <time>2013-04-29T02:12:01Z</time>
      </trkpt>
      <trkpt lat="44.62934" lon="0.45772">
        <ele>83</ele>
        <time>2013-04-29T02:12:11Z</time>
      </trkpt>
      <trkpt lat="44.62966" lon="0.45797">
        <ele>84</ele>
        <time>2013-04-29T02:12:19Z</time>
      </trkpt>
      <trkpt lat="44.63001" lon="0.45847">
        <ele>86</ele>
        <time>2013-04-29T02:12:31Z</time>
      </trkpt>
      <trkpt lat="44.6302" lon="0.4589">
        <ele>88</ele>
        <time>2013-04-29T02:12:39Z</time>
      </trkpt>
      <trkpt lat="44.6303" lon="0.45975">
        <ele>89</ele>
        <time>2013-04-29T02:12:52Z</time>
      </trkpt>
      <trkpt lat="44.63019" lon="0.46107">
        <ele>93</ele>
        <time>2013-04-29T02:13:12Z</time>
      </trkpt>
      <trkpt lat="44.63019" lon="0.46107">
        <ele>93</ele>
        <time>2013-04-29T02:13:13Z</time>
      </trkpt>
      <trkpt lat="44.63018" lon="0.46153">
        <ele>92</ele>
        <time>2013-04-29T02:13:17Z</time>
      </trkpt>
      <trkpt lat="44.63114" lon="0.46447">
        <ele>90</ele>
        <time>2013-04-29T02:13:48Z</time>
      </trkpt>
      <trkpt lat="44.63333" lon="0.47084">
        <ele>95</ele>
        <time>2013-04-29T02:15:07Z</time>
      </trkpt>
      <trkpt lat="44.63747" lon="0.48232">
        <ele>90</ele>
        <time>2013-04-29T02:17:10Z</time>
      </trkpt>
      <trkpt lat="44.64072" lon="0.49146">
        <ele>92</ele>
        <time>2013-04-29T02:18:52Z</time>
      </trkpt>
      <trkpt lat="44.65351" lon="0.52826">
        <ele>99</ele>
        <time>2013-04-29T02:25:38Z</time>
      </trkpt>
      <trkpt lat="44.65357" lon="0.52861">
        <ele>100</ele>
        <time>2013-04-29T02:25:46Z</time>
      </trkpt>
      <trkpt lat="44.65351" lon="0.52878">
        <ele>101</ele>
        <time>2013-04-29T02:25:50Z</time>
      </trkpt>
      <trkpt lat="44.65342" lon="0.52887">
        <ele>102</ele>
        <time>2013-04-29T02:25:53Z</time>
      </trkpt>
      <trkpt lat="44.65261" lon="0.52884">
        <ele>109</ele>
        <time>2013-04-29T02:26:19Z</time>
      </trkpt>
      <trkpt lat="44.65225" lon="0.52902">
        <ele>111</ele>
        <time>2013-04-29T02:26:30Z</time>
      </trkpt>
      <trkpt lat="44.65209" lon="0.52925">
        <ele>112</ele>
        <time>2013-04-29T02:26:36Z</time>
      </trkpt>
      <trkpt lat="44.65201" lon="0.52948">
        <ele>113</ele>
        <time>2013-04-29T02:26:41Z</time>
      </trkpt>
      <trkpt lat="44.65181" lon="0.53121">
        <ele>121</ele>
        <time>2013-04-29T02:27:15Z</time>
      </trkpt>
      <trkpt lat="44.65176" lon="0.53174">
        <ele>123</ele>
        <time>2013-04-29T02:27:27Z</time>
      </trkpt>
      <trkpt lat="44.65179" lon="0.53204">
        <ele>125</ele>
        <time>2013-04-29T02:27:33Z</time>
      </trkpt>
      <trkpt lat="44.65196" lon="0.5323">
        <ele>127</ele>
        <time>2013-04-29T02:27:41Z</time>
      </trkpt>
      <trkpt lat="44.65257" lon="0.53276">
        <ele>132</ele>
        <time>2013-04-29T02:28:02Z</time>
      </trkpt>
      <trkpt lat="44.65287" lon="0.53311">
        <ele>132</ele>
        <time>2013-04-29T02:28:08Z</time>
      </trkpt>
      <trkpt lat="44.65412" lon="0.53504">
        <ele>133</ele>
        <time>2013-04-29T02:28:35Z</time>
      </trkpt>
      <trkpt lat="44.65483" lon="0.53628">
        <ele>136</ele>
        <time>2013-04-29T02:28:57Z</time>
      </trkpt>
      <trkpt lat="44.65531" lon="0.53722">
        <ele>135</ele>
        <time>2013-04-29T02:29:08Z</time>
      </trkpt>
      <trkpt lat="44.65556" lon="0.53787">
        <ele>135</ele>
        <time>2013-04-29T02:29:15Z</time>
      </trkpt>
      <trkpt lat="44.65579" lon="0.5387">
        <ele>136</ele>
        <time>2013-04-29T02:29:28Z</time>
      </trkpt>
      <trkpt lat="44.65585" lon="0.53919">
        <ele>138</ele>
        <time>2013-04-29T02:29:35Z</time>
      </trkpt>
      <trkpt lat="44.65578" lon="0.54124">
        <ele>136</ele>
        <time>2013-04-29T02:29:55Z</time>
      </trkpt>
      <trkpt lat="44.65534" lon="0.54736">
        <ele>134</ele>
        <time>2013-04-29T02:30:53Z</time>
      </trkpt>
      <trkpt lat="44.65534" lon="0.54781">
        <ele>133</ele>
        <time>2013-04-29T02:30:58Z</time>
      </trkpt>
      <trkpt lat="44.65672" lon="0.55819">
        <ele>131</ele>
        <time>2013-04-29T02:32:38Z</time>
      </trkpt>
      <trkpt lat="44.65686" lon="0.55949">
        <ele>131</ele>
        <time>2013-04-29T02:32:50Z</time>
      </trkpt>
      <trkpt lat="44.65682" lon="0.55992">
        <ele>129</ele>
        <time>2013-04-29T02:32:54Z</time>
      </trkpt>
      <trkpt lat="44.65643" lon="0.56182">
        <ele>121</ele>
        <time>2013-04-29T02:33:13Z</time>
      </trkpt>
      <trkpt lat="44.65639" lon="0.56223">
        <ele>118</ele>
        <time>2013-04-29T02:33:17Z</time>
      </trkpt>
      <trkpt lat="44.65661" lon="0.56419">
        <ele>106</ele>
        <time>2013-04-29T02:33:36Z</time>
      </trkpt>
      <trkpt lat="44.65663" lon="0.56492">
        <ele>104</ele>
        <time>2013-04-29T02:33:43Z</time>
      </trkpt>
      <trkpt lat="44.6566" lon="0.56525">
        <ele>104</ele>
        <time>2013-04-29T02:33:46Z</time>
      </trkpt>
      <trkpt lat="44.65513" lon="0.57501">
        <ele>90</ele>
        <time>2013-04-29T02:35:21Z</time>
      </trkpt>
      <trkpt lat="44.65506" lon="0.5758">
        <ele>87</ele>
        <time>2013-04-29T02:35:28Z</time>
      </trkpt>
      <trkpt lat="44.65513" lon="0.57659">
        <ele>85</ele>
        <time>2013-04-29T02:35:36Z</time>
      </trkpt>
      <trkpt lat="44.65617" lon="0.58243">
        <ele>72</ele>
        <time>2013-04-29T02:36:33Z</time>
      </trkpt>
      <trkpt lat="44.65617" lon="0.58242">
        <ele>72</ele>
        <time>2013-04-29T02:36:33Z</time>
      </trkpt>
      <trkpt lat="44.65748" lon="0.58989">
        <ele>80</ele>
        <time>2013-04-29T02:38:06Z</time>
      </trkpt>
      <trkpt lat="44.65707" lon="0.59019">
        <ele>82</ele>
        <time>2013-04-29T02:38:18Z</time>
      </trkpt>
      <trkpt lat="44.65662" lon="0.59033">
        <ele>85</ele>
        <time>2013-04-29T02:38:30Z</time>
      </trkpt>
      <trkpt lat="44.65621" lon="0.59028">
        <ele>88</ele>
        <time>2013-04-29T02:38:45Z</time>
      </trkpt>
      <trkpt lat="44.65595" lon="0.59012">
        <ele>91</ele>
        <time>2013-04-29T02:38:55Z</time>
      </trkpt>
      <trkpt lat="44.65579" lon="0.58995">
        <ele>93</ele>
        <time>2013-04-29T02:39:03Z</time>
      </trkpt>
      <trkpt lat="44.65565" lon="0.59055">
        <ele>98</ele>
        <time>2013-04-29T02:39:19Z</time>
      </trkpt>
      <trkpt lat="44.65522" lon="0.59305">
        <ele>93</ele>
        <time>2013-04-29T02:39:44Z</time>
      </trkpt>
      <trkpt lat="44.65524" lon="0.59369">
        <ele>92</ele>
        <time>2013-04-29T02:39:50Z</time>
      </trkpt>
      <trkpt lat="44.65542" lon="0.59426">
        <ele>91</ele>
        <time>2013-04-29T02:39:56Z</time>
      </trkpt>
      <trkpt lat="44.65635" lon="0.59552">
        <ele>89</ele>
        <time>2013-04-29T02:40:13Z</time>
      </trkpt>
      <trkpt lat="44.65802" lon="0.59699">
        <ele>89</ele>
        <time>2013-04-29T02:40:39Z</time>
      </trkpt>
      <trkpt lat="44.65858" lon="0.59755">
        <ele>86</ele>
        <time>2013-04-29T02:40:48Z</time>
      </trkpt>
      <trkpt lat="44.65906" lon="0.59826">
        <ele>84</ele>
        <time>2013-04-29T02:40:58Z</time>
      </trkpt>
      <trkpt lat="44.66031" lon="0.60049">
        <ele>77</ele>
        <time>2013-04-29T02:41:25Z</time>
      </trkpt>
      <trkpt lat="44.66056" lon="0.60081">
        <ele>76</ele>
        <time>2013-04-29T02:41:29Z</time>
      </trkpt>
      <trkpt lat="44.66073" lon="0.60095">
        <ele>76</ele>
        <time>2013-04-29T02:41:32Z</time>
      </trkpt>
      <trkpt lat="44.66111" lon="0.60108">
        <ele>76</ele>
        <time>2013-04-29T02:41:37Z</time>
      </trkpt>
      <trkpt lat="44.66239" lon="0.60124">
        <ele>75</ele>
        <time>2013-04-29T02:41:54Z</time>
      </trkpt>
      <trkpt lat="44.66273" lon="0.60122">
        <ele>73</ele>
        <time>2013-04-29T02:41:59Z</time>
      </trkpt>
      <trkpt lat="44.66316" lon="0.601">
        <ele>72</ele>
        <time>2013-04-29T02:42:05Z</time>
      </trkpt>
      <trkpt lat="44.66383" lon="0.60044">
        <ele>70</ele>
        <time>2013-04-29T02:42:15Z</time>
      </trkpt>
      <trkpt lat="44.66411" lon="0.60033">
        <ele>69</ele>
        <time>2013-04-29T02:42:19Z</time>
      </trkpt>
      <trkpt lat="44.66435" lon="0.60035">
        <ele>69</ele>
        <time>2013-04-29T02:42:22Z</time>
      </trkpt>
      <trkpt lat="44.6649" lon="0.60072">
        <ele>68</ele>
        <time>2013-04-29T02:42:30Z</time>
      </trkpt>
      <trkpt lat="44.66913" lon="0.60396">
        <ele>67</ele>
        <time>2013-04-29T02:43:35Z</time>
      </trkpt>
      <trkpt lat="44.66944" lon="0.60414">
        <ele>67</ele>
        <time>2013-04-29T02:43:40Z</time>
      </trkpt>
      <trkpt lat="44.6697" lon="0.60423">
        <ele>67</ele>
        <time>2013-04-29T02:43:44Z</time>
      </trkpt>
      <trkpt lat="44.66969" lon="0.60435">
        <ele>67</ele>
        <time>2013-04-29T02:43:45Z</time>
      </trkpt>
      <trkpt lat="44.67037" lon="0.60634">
        <ele>68</ele>
        <time>2013-04-29T02:44:07Z</time>
      </trkpt>
      <trkpt lat="44.67113" lon="0.60743">
        <ele>70</ele>
        <time>2013-04-29T02:44:27Z</time>
      </trkpt>
      <trkpt lat="44.67152" lon="0.6083">
        <ele>71</ele>
        <time>2013-04-29T02:44:40Z</time>
      </trkpt>
      <trkpt lat="44.67161" lon="0.60866">
        <ele>72</ele>
        <time>2013-04-29T02:44:45Z</time>
      </trkpt>
      <trkpt lat="44.67163" lon="0.6089">
        <ele>72</ele>
        <time>2013-04-29T02:44:48Z</time>
      </trkpt>
      <trkpt lat="44.6716" lon="0.60943">
        <ele>72</ele>
        <time>2013-04-29T02:44:54Z</time>
      </trkpt>
      <trkpt lat="44.6713" lon="0.61131">
        <ele>74</ele>
        <time>2013-04-29T02:45:15Z</time>
      </trkpt>
      <trkpt lat="44.67146" lon="0.61277">
        <ele>76</ele>
        <time>2013-04-29T02:45:34Z</time>
      </trkpt>
      <trkpt lat="44.67141" lon="0.61424">
        <ele>76</ele>
        <time>2013-04-29T02:45:48Z</time>
      </trkpt>
      <trkpt lat="44.67177" lon="0.61648">
        <ele>81</ele>
        <time>2013-04-29T02:46:22Z</time>
      </trkpt>
      <trkpt lat="44.67192" lon="0.61777">
        <ele>78</ele>
        <time>2013-04-29T02:46:34Z</time>
      </trkpt>
      <trkpt lat="44.67234" lon="0.62053">
        <ele>74</ele>
        <time>2013-04-29T02:47:01Z</time>
      </trkpt>
      <trkpt lat="44.67234" lon="0.621">
        <ele>73</ele>
        <time>2013-04-29T02:47:06Z</time>
      </trkpt>
      <trkpt lat="44.67225" lon="0.62155">
        <ele>73</ele>
        <time>2013-04-29T02:47:11Z</time>
      </trkpt>
      <trkpt lat="44.67172" lon="0.62274">
        <ele>73</ele>
        <time>2013-04-29T02:47:24Z</time>
      </trkpt>
      <trkpt lat="44.67148" lon="0.62465">
        <ele>73</ele>
        <time>2013-04-29T02:47:43Z</time>
      </trkpt>
      <trkpt lat="44.67142" lon="0.626">
        <ele>72</ele>
        <time>2013-04-29T02:47:56Z</time>
      </trkpt>
      <trkpt lat="44.67127" lon="0.6278">
        <ele>72</ele>
        <time>2013-04-29T02:48:13Z</time>
      </trkpt>
      <trkpt lat="44.67118" lon="0.63026">
        <ele>71</ele>
        <time>2013-04-29T02:48:36Z</time>
      </trkpt>
      <trkpt lat="44.67121" lon="0.63283">
        <ele>72</ele>
        <time>2013-04-29T02:49:03Z</time>
      </trkpt>
      <trkpt lat="44.67128" lon="0.63335">
        <ele>71</ele>
        <time>2013-04-29T02:49:08Z</time>
      </trkpt>
      <trkpt lat="44.67137" lon="0.63366">
        <ele>71</ele>
        <time>2013-04-29T02:49:11Z</time>
      </trkpt>
      <trkpt lat="44.67284" lon="0.63465">
        <ele>71</ele>
        <time>2013-04-29T02:49:33Z</time>
      </trkpt>
      <trkpt lat="44.67354" lon="0.63557">
        <ele>70</ele>
        <time>2013-04-29T02:49:46Z</time>
      </trkpt>
      <trkpt lat="44.67406" lon="0.6368">
        <ele>73</ele>
        <time>2013-04-29T02:50:07Z</time>
      </trkpt>
      <trkpt lat="44.6742" lon="0.63786">
        <ele>72</ele>
        <time>2013-04-29T02:50:17Z</time>
      </trkpt>
      <trkpt lat="44.67467" lon="0.63914">
        <ele>71</ele>
        <time>2013-04-29T02:50:31Z</time>
      </trkpt>
      <trkpt lat="44.676" lon="0.64153">
        <ele>73</ele>
        <time>2013-04-29T02:51:04Z</time>
      </trkpt>
      <trkpt lat="44.67681" lon="0.64278">
        <ele>74</ele>
        <time>2013-04-29T02:51:23Z</time>
      </trkpt>
      <trkpt lat="44.677" lon="0.64315">
        <ele>74</ele>
        <time>2013-04-29T02:51:27Z</time>
      </trkpt>
      <trkpt lat="44.67704" lon="0.64334">
        <ele>74</ele>
        <time>2013-04-29T02:51:29Z</time>
      </trkpt>
      <trkpt lat="44.67705" lon="0.64366">
        <ele>74</ele>
        <time>2013-04-29T02:51:32Z</time>
      </trkpt>
      <trkpt lat="44.67689" lon="0.64485">
        <ele>74</ele>
        <time>2013-04-29T02:51:43Z</time>
      </trkpt>
      <trkpt lat="44.67693" lon="0.64546">
        <ele>74</ele>
        <time>2013-04-29T02:51:51Z</time>
      </trkpt>
      <trkpt lat="44.67787" lon="0.6481">
        <ele>77</ele>
        <time>2013-04-29T02:52:25Z</time>
      </trkpt>
      <trkpt lat="44.67824" lon="0.64935">
        <ele>73</ele>
        <time>2013-04-29T02:52:37Z</time>
      </trkpt>
      <trkpt lat="44.67834" lon="0.65248">
        <ele>74</ele>
        <time>2013-04-29T02:53:10Z</time>
      </trkpt>
      <trkpt lat="44.67871" lon="0.65754">
        <ele>75</ele>
        <time>2013-04-29T02:54:00Z</time>
      </trkpt>
      <trkpt lat="44.67875" lon="0.65802">
        <ele>74</ele>
        <time>2013-04-29T02:54:05Z</time>
      </trkpt>
      <trkpt lat="44.67874" lon="0.65854">
        <ele>74</ele>
        <time>2013-04-29T02:54:10Z</time>
      </trkpt>
      <trkpt lat="44.67821" lon="0.66114">
        <ele>74</ele>
        <time>2013-04-29T02:54:35Z</time>
      </trkpt>
      <trkpt lat="44.67818" lon="0.66163">
        <ele>74</ele>
        <time>2013-04-29T02:54:40Z</time>
      </trkpt>
      <trkpt lat="44.67862" lon="0.66702">
        <ele>75</ele>
        <time>2013-04-29T02:55:34Z</time>
      </trkpt>
      <trkpt lat="44.67867" lon="0.66749">
        <ele>75</ele>
        <time>2013-04-29T02:55:39Z</time>
      </trkpt>
      <trkpt lat="44.67878" lon="0.66787">
        <ele>75</ele>
        <time>2013-04-29T02:55:44Z</time>
      </trkpt>
      <trkpt lat="44.67894" lon="0.66808">
        <ele>75</ele>
        <time>2013-04-29T02:55:47Z</time>
      </trkpt>
      <trkpt lat="44.67927" lon="0.6683">
        <ele>76</ele>
        <time>2013-04-29T02:55:53Z</time>
      </trkpt>
      <trkpt lat="44.68099" lon="0.66925">
        <ele>76</ele>
        <time>2013-04-29T02:56:17Z</time>
      </trkpt>
      <trkpt lat="44.68419" lon="0.67191">
        <ele>76</ele>
        <time>2013-04-29T02:57:07Z</time>
      </trkpt>
      <trkpt lat="44.68442" lon="0.67217">
        <ele>76</ele>
        <time>2013-04-29T02:57:12Z</time>
      </trkpt>
      <trkpt lat="44.68464" lon="0.67254">
        <ele>76</ele>
        <time>2013-04-29T02:57:17Z</time>
      </trkpt>
      <trkpt lat="44.68475" lon="0.67285">
        <ele>76</ele>
        <time>2013-04-29T02:57:21Z</time>
      </trkpt>
      <trkpt lat="44.68501" lon="0.67416">
        <ele>78</ele>
        <time>2013-04-29T02:57:37Z</time>
      </trkpt>
      <trkpt lat="44.68519" lon="0.67474">
        <ele>77</ele>
        <time>2013-04-29T02:57:43Z</time>
      </trkpt>
      <trkpt lat="44.6869" lon="0.67709">
        <ele>76</ele>
        <time>2013-04-29T02:58:15Z</time>
      </trkpt>
      <trkpt lat="44.68727" lon="0.67749">
        <ele>76</ele>
        <time>2013-04-29T02:58:22Z</time>
      </trkpt>
      <trkpt lat="44.68753" lon="0.67765">
        <ele>76</ele>
        <time>2013-04-29T02:58:26Z</time>
      </trkpt>
      <trkpt lat="44.68793" lon="0.67773">
        <ele>77</ele>
        <time>2013-04-29T02:58:32Z</time>
      </trkpt>
      <trkpt lat="44.6882" lon="0.67769">
        <ele>77</ele>
        <time>2013-04-29T02:58:37Z</time>
      </trkpt>
      <trkpt lat="44.6888" lon="0.67743">
        <ele>79</ele>
        <time>2013-04-29T02:58:49Z</time>
      </trkpt>
      <trkpt lat="44.68919" lon="0.6774">
        <ele>80</ele>
        <time>2013-04-29T02:58:57Z</time>
      </trkpt>
      <trkpt lat="44.68955" lon="0.67753">
        <ele>81</ele>
        <time>2013-04-29T02:59:05Z</time>
      </trkpt>
      <trkpt lat="44.68995" lon="0.67781">
        <ele>82</ele>
        <time>2013-04-29T02:59:14Z</time>
      </trkpt>
      <trkpt lat="44.69068" lon="0.67703">
        <ele>86</ele>
        <time>2013-04-29T02:59:34Z</time>
      </trkpt>
      <trkpt lat="44.69068" lon="0.67703">
        <ele>86</ele>
        <time>2013-04-29T02:59:35Z</time>
      </trkpt>
      <trkpt lat="44.68995" lon="0.67781">
        <ele>82</ele>
        <time>2013-04-29T02:59:48Z</time>
      </trkpt>
      <trkpt lat="44.69049" lon="0.67815">
        <ele>83</ele>
        <time>2013-04-29T02:59:58Z</time>
      </trkpt>
      <trkpt lat="44.69068" lon="0.67821">
        <ele>83</ele>
        <time>2013-04-29T03:00:02Z</time>
      </trkpt>
      <trkpt lat="44.69085" lon="0.67818">
        <ele>84</ele>
        <time>2013-04-29T03:00:05Z</time>
      </trkpt>
      <trkpt lat="44.6912" lon="0.67799">
        <ele>84</ele>
        <time>2013-04-29T03:00:11Z</time>
      </trkpt>
      <trkpt lat="44.69139" lon="0.67806">
        <ele>84</ele>
        <time>2013-04-29T03:00:14Z</time>
      </trkpt>
      <trkpt lat="44.69154" lon="0.67825">
        <ele>84</ele>
        <time>2013-04-29T03:00:18Z</time>
      </trkpt>
      <trkpt lat="44.69209" lon="0.6794">
        <ele>86</ele>
        <time>2013-04-29T03:00:33Z</time>
      </trkpt>
      <trkpt lat="44.69327" lon="0.68055">
        <ele>90</ele>
        <time>2013-04-29T03:01:02Z</time>
      </trkpt>
      <trkpt lat="44.69367" lon="0.68103">
        <ele>90</ele>
        <time>2013-04-29T03:01:09Z</time>
      </trkpt>
      <trkpt lat="44.69418" lon="0.6818">
        <ele>90</ele>
        <time>2013-04-29T03:01:19Z</time>
      </trkpt>
      <trkpt lat="44.69443" lon="0.68204">
        <ele>90</ele>
        <time>2013-04-29T03:01:24Z</time>
      </trkpt>
      <trkpt lat="44.69544" lon="0.6824">
        <ele>91</ele>
        <time>2013-04-29T03:01:40Z</time>
      </trkpt>
      <trkpt lat="44.6958" lon="0.68234">
        <ele>92</ele>
        <time>2013-04-29T03:01:49Z</time>
      </trkpt>
      <trkpt lat="44.6963" lon="0.68192">
        <ele>96</ele>
        <time>2013-04-29T03:02:04Z</time>
      </trkpt>
      <trkpt lat="44.69651" lon="0.68182">
        <ele>96</ele>
        <time>2013-04-29T03:02:08Z</time>
      </trkpt>
      <trkpt lat="44.69689" lon="0.68183">
        <ele>96</ele>
        <time>2013-04-29T03:02:14Z</time>
      </trkpt>
      <trkpt lat="44.69774" lon="0.68208">
        <ele>98</ele>
        <time>2013-04-29T03:02:29Z</time>
      </trkpt>
      <trkpt lat="44.69796" lon="0.68216">
        <ele>97</ele>
        <time>2013-04-29T03:02:32Z</time>
      </trkpt>
      <trkpt lat="44.69992" lon="0.68327">
        <ele>92</ele>
        <time>2013-04-29T03:03:00Z</time>
      </trkpt>
      <trkpt lat="44.70034" lon="0.68365">
        <ele>90</ele>
        <time>2013-04-29T03:03:07Z</time>
      </trkpt>
      <trkpt lat="44.70097" lon="0.68436">
        <ele>88</ele>
        <time>2013-04-29T03:03:17Z</time>
      </trkpt>
      <trkpt lat="44.70117" lon="0.68424">
        <ele>88</ele>
        <time>2013-04-29T03:03:23Z</time>
      </trkpt>
      <trkpt lat="44.70278" lon="0.6836">
        <ele>96</ele>
        <time>2013-04-29T03:04:02Z</time>
      </trkpt>
      <trkpt lat="44.70294" lon="0.68347">
        <ele>96</ele>
        <time>2013-04-29T03:04:06Z</time>
      </trkpt>
      <trkpt lat="44.7031" lon="0.68322">
        <ele>97</ele>
        <time>2013-04-29T03:04:10Z</time>
      </trkpt>
      <trkpt lat="44.70401" lon="0.68127">
        <ele>102</ele>
        <time>2013-04-29T03:04:44Z</time>
      </trkpt>
      <trkpt lat="44.70417" lon="0.68109">
        <ele>102</ele>
        <time>2013-04-29T03:04:49Z</time>
      </trkpt>
      <trkpt lat="44.70435" lon="0.68101">
        <ele>103</ele>
        <time>2013-04-29T03:04:53Z</time>
      </trkpt>
      <trkpt lat="44.70463" lon="0.68113">
        <ele>104</ele>
        <time>2013-04-29T03:05:00Z</time>
      </trkpt>
      <trkpt lat="44.70539" lon="0.68175">
        <ele>108</ele>
        <time>2013-04-29T03:05:19Z</time>
      </trkpt>
      <trkpt lat="44.70569" lon="0.68194">
        <ele>111</ele>
        <time>2013-04-29T03:05:33Z</time>
      </trkpt>
      <trkpt lat="44.70626" lon="0.68215">
        <ele>119</ele>
        <time>2013-04-29T03:05:58Z</time>
      </trkpt>
      <trkpt lat="44.70722" lon="0.68238">
        <ele>124</ele>
        <time>2013-04-29T03:06:23Z</time>
      </trkpt>
      <trkpt lat="44.70827" lon="0.68285">
        <ele>126</ele>
        <time>2013-04-29T03:06:43Z</time>
      </trkpt>
      <trkpt lat="44.70871" lon="0.68291">
        <ele>127</ele>
        <time>2013-04-29T03:06:51Z</time>
      </trkpt>
      <trkpt lat="44.70984" lon="0.68276">
        <ele>130</ele>
        <time>2013-04-29T03:07:13Z</time>
      </trkpt>
      <trkpt lat="44.71027" lon="0.68284">
        <ele>127</ele>
        <time>2013-04-29T03:07:19Z</time>
      </trkpt>
      <trkpt lat="44.71174" lon="0.68372">
        <ele>118</ele>
        <time>2013-04-29T03:07:40Z</time>
      </trkpt>
      <trkpt lat="44.71292" lon="0.68405">
        <ele>116</ele>
        <time>2013-04-29T03:07:56Z</time>
      </trkpt>
      <trkpt lat="44.7132" lon="0.68429">
        <ele>117</ele>
        <time>2013-04-29T03:08:05Z</time>
      </trkpt>
      <trkpt lat="44.71372" lon="0.68502">
        <ele>122</ele>
        <time>2013-04-29T03:08:25Z</time>
      </trkpt>
      <trkpt lat="44.71401" lon="0.68524">
        <ele>123</ele>
        <time>2013-04-29T03:08:34Z</time>
      </trkpt>
      <trkpt lat="44.71632" lon="0.68576">
        <ele>138</ele>
        <time>2013-04-29T03:09:39Z</time>
      </trkpt>
      <trkpt lat="44.7166" lon="0.68595">
        <ele>138</ele>
        <time>2013-04-29T03:09:45Z</time>
      </trkpt>
      <trkpt lat="44.71678" lon="0.6862">
        <ele>139</ele>
        <time>2013-04-29T03:09:50Z</time>
      </trkpt>
      <trkpt lat="44.71689" lon="0.68646">
        <ele>139</ele>
        <time>2013-04-29T03:09:54Z</time>
      </trkpt>
      <trkpt lat="44.71703" lon="0.68798">
        <ele>142</ele>
        <time>2013-04-29T03:10:14Z</time>
      </trkpt>
      <trkpt lat="44.71713" lon="0.68831">
        <ele>142</ele>
        <time>2013-04-29T03:10:18Z</time>
      </trkpt>
      <trkpt lat="44.71733" lon="0.68873">
        <ele>143</ele>
        <time>2013-04-29T03:10:24Z</time>
      </trkpt>
      <trkpt lat="44.71753" lon="0.689">
        <ele>143</ele>
        <time>2013-04-29T03:10:29Z</time>
      </trkpt>
      <trkpt lat="44.71781" lon="0.68922">
        <ele>144</ele>
        <time>2013-04-29T03:10:35Z</time>
      </trkpt>
      <trkpt lat="44.71906" lon="0.68998">
        <ele>149</ele>
        <time>2013-04-29T03:11:05Z</time>
      </trkpt>
      <trkpt lat="44.72002" lon="0.69119">
        <ele>151</ele>
        <time>2013-04-29T03:11:27Z</time>
      </trkpt>
      <trkpt lat="44.7202" lon="0.6913">
        <ele>150</ele>
        <time>2013-04-29T03:11:29Z</time>
      </trkpt>
      <trkpt lat="44.72019" lon="0.69161">
        <ele>150</ele>
        <time>2013-04-29T03:11:32Z</time>
      </trkpt>
      <trkpt lat="44.7203" lon="0.69184">
        <ele>150</ele>
        <time>2013-04-29T03:11:35Z</time>
      </trkpt>
      <trkpt lat="44.7208" lon="0.69357">
        <ele>150</ele>
        <time>2013-04-29T03:11:53Z</time>
      </trkpt>
      <trkpt lat="44.72108" lon="0.69429">
        <ele>149</ele>
        <time>2013-04-29T03:12:01Z</time>
      </trkpt>
      <trkpt lat="44.72145" lon="0.69511">
        <ele>149</ele>
        <time>2013-04-29T03:12:10Z</time>
      </trkpt>
      <trkpt lat="44.72201" lon="0.69619">
        <ele>150</ele>
        <time>2013-04-29T03:12:25Z</time>
      </trkpt>
      <trkpt lat="44.72239" lon="0.69669">
        <ele>149</ele>
        <time>2013-04-29T03:12:32Z</time>
      </trkpt>
      <trkpt lat="44.73172" lon="0.70313">
        <ele>142</ele>
        <time>2013-04-29T03:14:51Z</time>
      </trkpt>
      <trkpt lat="44.73284" lon="0.70386">
        <ele>140</ele>
        <time>2013-04-29T03:15:07Z</time>
      </trkpt>
      <trkpt lat="44.73333" lon="0.70405">
        <ele>141</ele>
        <time>2013-04-29T03:15:17Z</time>
      </trkpt>
      <trkpt lat="44.73443" lon="0.70423">
        <ele>144</ele>
        <time>2013-04-29T03:15:38Z</time>
      </trkpt>
      <trkpt lat="44.73462" lon="0.70432">
        <ele>144</ele>
        <time>2013-04-29T03:15:42Z</time>
      </trkpt>
      <trkpt lat="44.73478" lon="0.70457">
        <ele>145</ele>
        <time>2013-04-29T03:15:47Z</time>
      </trkpt>
      <trkpt lat="44.73697" lon="0.70898">
        <ele>156</ele>
        <time>2013-04-29T03:17:04Z</time>
      </trkpt>
      <trkpt lat="44.73722" lon="0.70929">
        <ele>156</ele>
        <time>2013-04-29T03:17:11Z</time>
      </trkpt>
      <trkpt lat="44.73821" lon="0.70957">
        <ele>160</ele>
        <time>2013-04-29T03:17:32Z</time>
      </trkpt>
      <trkpt lat="44.73838" lon="0.70966">
        <ele>158</ele>
        <time>2013-04-29T03:17:34Z</time>
      </trkpt>
      <trkpt lat="44.7385" lon="0.70981">
        <ele>158</ele>
        <time>2013-04-29T03:17:36Z</time>
      </trkpt>
      <trkpt lat="44.73951" lon="0.7102">
        <ele>152</ele>
        <time>2013-04-29T03:17:50Z</time>
      </trkpt>
      <trkpt lat="44.74086" lon="0.71047">
        <ele>142</ele>
        <time>2013-04-29T03:18:08Z</time>
      </trkpt>
      <trkpt lat="44.74121" lon="0.71062">
        <ele>141</ele>
        <time>2013-04-29T03:18:13Z</time>
      </trkpt>
      <trkpt lat="44.74301" lon="0.71221">
        <ele>138</ele>
        <time>2013-04-29T03:18:42Z</time>
      </trkpt>
      <trkpt lat="44.74547" lon="0.71427">
        <ele>146</ele>
        <time>2013-04-29T03:19:39Z</time>
      </trkpt>
      <trkpt lat="44.7472" lon="0.71583">
        <ele>150</ele>
        <time>2013-04-29T03:20:16Z</time>
      </trkpt>
      <trkpt lat="44.74826" lon="0.71713">
        <ele>150</ele>
        <time>2013-04-29T03:20:35Z</time>
      </trkpt>
      <trkpt lat="44.74864" lon="0.71794">
        <ele>149</ele>
        <time>2013-04-29T03:20:44Z</time>
      </trkpt>
      <trkpt lat="44.74912" lon="0.71919">
        <ele>148</ele>
        <time>2013-04-29T03:20:58Z</time>
      </trkpt>
      <trkpt lat="44.74989" lon="0.72038">
        <ele>148</ele>
        <time>2013-04-29T03:21:13Z</time>
      </trkpt>
      <trkpt lat="44.7507" lon="0.72179">
        <ele>148</ele>
        <time>2013-04-29T03:21:30Z</time>
      </trkpt>
      <trkpt lat="44.75123" lon="0.7225">
        <ele>148</ele>
        <time>2013-04-29T03:21:40Z</time>
      </trkpt>
      <trkpt lat="44.7514" lon="0.72266">
        <ele>148</ele>
        <time>2013-04-29T03:21:43Z</time>
      </trkpt>
      <trkpt lat="44.75243" lon="0.72337">
        <ele>147</ele>
        <time>2013-04-29T03:21:58Z</time>
      </trkpt>
      <trkpt lat="44.75259" lon="0.72352">
        <ele>146</ele>
        <time>2013-04-29T03:22:00Z</time>
      </trkpt>
      <trkpt lat="44.7531" lon="0.72459">
        <ele>146</ele>
        <time>2013-04-29T03:22:13Z</time>
      </trkpt>
      <trkpt lat="44.75325" lon="0.72478">
        <ele>145</ele>
        <time>2013-04-29T03:22:15Z</time>
      </trkpt>
      <trkpt lat="44.75502" lon="0.72508">
        <ele>145</ele>
        <time>2013-04-29T03:22:39Z</time>
      </trkpt>
      <trkpt lat="44.75517" lon="0.725">
        <ele>145</ele>
        <time>2013-04-29T03:22:42Z</time>
      </trkpt>
      <trkpt lat="44.75532" lon="0.72471">
        <ele>145</ele>
        <time>2013-04-29T03:22:46Z</time>
      </trkpt>
      <trkpt lat="44.75544" lon="0.7247">
        <ele>145</ele>
        <time>2013-04-29T03:22:48Z</time>
      </trkpt>
      <trkpt lat="44.75666" lon="0.72535">
        <ele>148</ele>
        <time>2013-04-29T03:23:11Z</time>
      </trkpt>
      <trkpt lat="44.75748" lon="0.72447">
        <ele>151</ele>
        <time>2013-04-29T03:23:32Z</time>
      </trkpt>
      <trkpt lat="44.75772" lon="0.72435">
        <ele>150</ele>
        <time>2013-04-29T03:23:35Z</time>
      </trkpt>
      <trkpt lat="44.75845" lon="0.72419">
        <ele>150</ele>
        <time>2013-04-29T03:23:45Z</time>
      </trkpt>
      <trkpt lat="44.7586" lon="0.72487">
        <ele>147</ele>
        <time>2013-04-29T03:23:52Z</time>
      </trkpt>
      <trkpt lat="44.75864" lon="0.72523">
        <ele>146</ele>
        <time>2013-04-29T03:23:55Z</time>
      </trkpt>
      <trkpt lat="44.75865" lon="0.72568">
        <ele>145</ele>
        <time>2013-04-29T03:24:00Z</time>
      </trkpt>
      <trkpt lat="44.75861" lon="0.72601">
        <ele>144</ele>
        <time>2013-04-29T03:24:03Z</time>
      </trkpt>
      <trkpt lat="44.75811" lon="0.728">
        <ele>144</ele>
        <time>2013-04-29T03:24:23Z</time>
      </trkpt>
      <trkpt lat="44.75796" lon="0.72911">
        <ele>138</ele>
        <time>2013-04-29T03:24:34Z</time>
      </trkpt>
      <trkpt lat="44.75785" lon="0.72934">
        <ele>137</ele>
        <time>2013-04-29T03:24:36Z</time>
      </trkpt>
      <trkpt lat="44.75745" lon="0.72982">
        <ele>134</ele>
        <time>2013-04-29T03:24:43Z</time>
      </trkpt>
      <trkpt lat="44.75737" lon="0.73007">
        <ele>133</ele>
        <time>2013-04-29T03:24:46Z</time>
      </trkpt>
      <trkpt lat="44.75739" lon="0.73026">
        <ele>132</ele>
        <time>2013-04-29T03:24:48Z</time>
      </trkpt>
      <trkpt lat="44.75754" lon="0.7305">
        <ele>131</ele>
        <time>2013-04-29T03:24:51Z</time>
      </trkpt>
      <trkpt lat="44.75822" lon="0.73109">
        <ele>127</ele>
        <time>2013-04-29T03:25:01Z</time>
      </trkpt>
      <trkpt lat="44.75854" lon="0.73132">
        <ele>126</ele>
        <time>2013-04-29T03:25:06Z</time>
      </trkpt>
      <trkpt lat="44.75919" lon="0.73168">
        <ele>125</ele>
        <time>2013-04-29T03:25:15Z</time>
      </trkpt>
      <trkpt lat="44.75942" lon="0.73195">
        <ele>122</ele>
        <time>2013-04-29T03:25:19Z</time>
      </trkpt>
      <trkpt lat="44.75956" lon="0.73233">
        <ele>119</ele>
        <time>2013-04-29T03:25:24Z</time>
      </trkpt>
      <trkpt lat="44.75979" lon="0.73336">
        <ele>113</ele>
        <time>2013-04-29T03:25:34Z</time>
      </trkpt>
      <trkpt lat="44.75992" lon="0.73377">
        <ele>113</ele>
        <time>2013-04-29T03:25:40Z</time>
      </trkpt>
      <trkpt lat="44.76072" lon="0.73485">
        <ele>117</ele>
        <time>2013-04-29T03:26:02Z</time>
      </trkpt>
      <trkpt lat="44.761" lon="0.73529">
        <ele>115</ele>
        <time>2013-04-29T03:26:08Z</time>
      </trkpt>
      <trkpt lat="44.76112" lon="0.73558">
        <ele>115</ele>
        <time>2013-04-29T03:26:11Z</time>
      </trkpt>
      <trkpt lat="44.7613" lon="0.73631">
        <ele>114</ele>
        <time>2013-04-29T03:26:19Z</time>
      </trkpt>
      <trkpt lat="44.76202" lon="0.73775">
        <ele>110</ele>
        <time>2013-04-29T03:26:35Z</time>
      </trkpt>
      <trkpt lat="44.76263" lon="0.73853">
        <ele>111</ele>
        <time>2013-04-29T03:26:50Z</time>
      </trkpt>
      <trkpt lat="44.76335" lon="0.73985">
        <ele>114</ele>
        <time>2013-04-29T03:27:12Z</time>
      </trkpt>
      <trkpt lat="44.76352" lon="0.74003">
        <ele>113</ele>
        <time>2013-04-29T03:27:14Z</time>
      </trkpt>
      <trkpt lat="44.7641" lon="0.74042">
        <ele>113</ele>
        <time>2013-04-29T03:27:23Z</time>
      </trkpt>
      <trkpt lat="44.76453" lon="0.74105">
        <ele>113</ele>
        <time>2013-04-29T03:27:31Z</time>
      </trkpt>
      <trkpt lat="44.76496" lon="0.74147">
        <ele>113</ele>
        <time>2013-04-29T03:27:39Z</time>
      </trkpt>
      <trkpt lat="44.76524" lon="0.74233">
        <ele>114</ele>
        <time>2013-04-29T03:27:50Z</time>
      </trkpt>
      <trkpt lat="44.76559" lon="0.74272">
        <ele>113</ele>
        <time>2013-04-29T03:27:56Z</time>
      </trkpt>
      <trkpt lat="44.76576" lon="0.74304">
        <ele>113</ele>
        <time>2013-04-29T03:27:59Z</time>
      </trkpt>
      <trkpt lat="44.76603" lon="0.74391">
        <ele>113</ele>
        <time>2013-04-29T03:28:08Z</time>
      </trkpt>
      <trkpt lat="44.76617" lon="0.74468">
        <ele>114</ele>
        <time>2013-04-29T03:28:20Z</time>
      </trkpt>
      <trkpt lat="44.76611" lon="0.74518">
        <ele>116</ele>
        <time>2013-04-29T03:28:28Z</time>
      </trkpt>
      <trkpt lat="44.7659" lon="0.74579">
        <ele>115</ele>
        <time>2013-04-29T03:28:34Z</time>
      </trkpt>
      <trkpt lat="44.7659" lon="0.74615">
        <ele>115</ele>
        <time>2013-04-29T03:28:38Z</time>
      </trkpt>
      <trkpt lat="44.76596" lon="0.7463">
        <ele>115</ele>
        <time>2013-04-29T03:28:39Z</time>
      </trkpt>
      <trkpt lat="44.7661" lon="0.74648">
        <ele>115</ele>
        <time>2013-04-29T03:28:42Z</time>
      </trkpt>
      <trkpt lat="44.76665" lon="0.74689">
        <ele>113</ele>
        <time>2013-04-29T03:28:50Z</time>
      </trkpt>
      <trkpt lat="44.76689" lon="0.74714">
        <ele>113</ele>
        <time>2013-04-29T03:28:54Z</time>
      </trkpt>
      <trkpt lat="44.76703" lon="0.7474">
        <ele>113</ele>
        <time>2013-04-29T03:28:59Z</time>
      </trkpt>
      <trkpt lat="44.76718" lon="0.74782">
        <ele>114</ele>
        <time>2013-04-29T03:29:05Z</time>
      </trkpt>
      <trkpt lat="44.76731" lon="0.7484">
        <ele>115</ele>
        <time>2013-04-29T03:29:12Z</time>
      </trkpt>
      <trkpt lat="44.76738" lon="0.74971">
        <ele>109</ele>
        <time>2013-04-29T03:29:25Z</time>
      </trkpt>
      <trkpt lat="44.7676" lon="0.75093">
        <ele>107</ele>
        <time>2013-04-29T03:29:37Z</time>
      </trkpt>
      <trkpt lat="44.7676" lon="0.75188">
        <ele>107</ele>
        <time>2013-04-29T03:29:46Z</time>
      </trkpt>
      <trkpt lat="44.76768" lon="0.75224">
        <ele>107</ele>
        <time>2013-04-29T03:29:49Z</time>
      </trkpt>
      <trkpt lat="44.76803" lon="0.75283">
        <ele>107</ele>
        <time>2013-04-29T03:29:57Z</time>
      </trkpt>
      <trkpt lat="44.76853" lon="0.75321">
        <ele>107</ele>
        <time>2013-04-29T03:30:04Z</time>
      </trkpt>
      <trkpt lat="44.76884" lon="0.75361">
        <ele>106</ele>
        <time>2013-04-29T03:30:10Z</time>
      </trkpt>
      <trkpt lat="44.7691" lon="0.75374">
        <ele>105</ele>
        <time>2013-04-29T03:30:14Z</time>
      </trkpt>
      <trkpt lat="44.7697" lon="0.75392">
        <ele>104</ele>
        <time>2013-04-29T03:30:22Z</time>
      </trkpt>
      <trkpt lat="44.77036" lon="0.75456">
        <ele>102</ele>
        <time>2013-04-29T03:30:33Z</time>
      </trkpt>
      <trkpt lat="44.77071" lon="0.75497">
        <ele>102</ele>
        <time>2013-04-29T03:30:39Z</time>
      </trkpt>
      <trkpt lat="44.77096" lon="0.75551">
        <ele>98</ele>
        <time>2013-04-29T03:30:45Z</time>
      </trkpt>
      <trkpt lat="44.77135" lon="0.75661">
        <ele>91</ele>
        <time>2013-04-29T03:30:56Z</time>
      </trkpt>
      <trkpt lat="44.77189" lon="0.75836">
        <ele>81</ele>
        <time>2013-04-29T03:31:14Z</time>
      </trkpt>
      <trkpt lat="44.77194" lon="0.75887">
        <ele>82</ele>
        <time>2013-04-29T03:31:22Z</time>
      </trkpt>
      <trkpt lat="44.77191" lon="0.75909">
        <ele>82</ele>
        <time>2013-04-29T03:31:25Z</time>
      </trkpt>
      <trkpt lat="44.77184" lon="0.75927">
        <ele>82</ele>
        <time>2013-04-29T03:31:28Z</time>
      </trkpt>
      <trkpt lat="44.77103" lon="0.76014">
        <ele>86</ele>
        <time>2013-04-29T03:31:49Z</time>
      </trkpt>
      <trkpt lat="44.77079" lon="0.76048">
        <ele>90</ele>
        <time>2013-04-29T03:32:03Z</time>
      </trkpt>
      <trkpt lat="44.77072" lon="0.76092">
        <ele>93</ele>
        <time>2013-04-29T03:32:17Z</time>
      </trkpt>
      <trkpt lat="44.77081" lon="0.76126">
        <ele>96</ele>
        <time>2013-04-29T03:32:27Z</time>
      </trkpt>
      <trkpt lat="44.77092" lon="0.76146">
        <ele>99</ele>
        <time>2013-04-29T03:32:35Z</time>
      </trkpt>
      <trkpt lat="44.77103" lon="0.76156">
        <ele>99</ele>
        <time>2013-04-29T03:32:37Z</time>
      </trkpt>
      <trkpt lat="44.77131" lon="0.76159">
        <ele>99</ele>
        <time>2013-04-29T03:32:40Z</time>
      </trkpt>
      <trkpt lat="44.77152" lon="0.76143">
        <ele>99</ele>
        <time>2013-04-29T03:32:44Z</time>
      </trkpt>
      <trkpt lat="44.77197" lon="0.76074">
        <ele>99</ele>
        <time>2013-04-29T03:32:52Z</time>
      </trkpt>
      <trkpt lat="44.7721" lon="0.76064">
        <ele>99</ele>
        <time>2013-04-29T03:32:57Z</time>
      </trkpt>
      <trkpt lat="44.77231" lon="0.76059">
        <ele>101</ele>
        <time>2013-04-29T03:33:03Z</time>
      </trkpt>
      <trkpt lat="44.77247" lon="0.76062">
        <ele>102</ele>
        <time>2013-04-29T03:33:07Z</time>
      </trkpt>
      <trkpt lat="44.77288" lon="0.76087">
        <ele>105</ele>
        <time>2013-04-29T03:33:20Z</time>
      </trkpt>
      <trkpt lat="44.77328" lon="0.76098">
        <ele>107</ele>
        <time>2013-04-29T03:33:30Z</time>
      </trkpt>
      <trkpt lat="44.7734" lon="0.76108">
        <ele>107</ele>
        <time>2013-04-29T03:33:34Z</time>
      </trkpt>
      <trkpt lat="44.77348" lon="0.76125">
        <ele>108</ele>
        <time>2013-04-29T03:33:37Z</time>
      </trkpt>
      <trkpt lat="44.77352" lon="0.76147">
        <ele>109</ele>
        <time>2013-04-29T03:33:41Z</time>
      </trkpt>
      <trkpt lat="44.77351" lon="0.76165">
        <ele>109</ele>
        <time>2013-04-29T03:33:45Z</time>
      </trkpt>
      <trkpt lat="44.77334" lon="0.76219">
        <ele>112</ele>
        <time>2013-04-29T03:33:55Z</time>
      </trkpt>
      <trkpt lat="44.77307" lon="0.7627">
        <ele>114</ele>
        <time>2013-04-29T03:34:07Z</time>
      </trkpt>
      <trkpt lat="44.77257" lon="0.7634">
        <ele>118</ele>
        <time>2013-04-29T03:34:25Z</time>
      </trkpt>
      <trkpt lat="44.77244" lon="0.76376">
        <ele>120</ele>
        <time>2013-04-29T03:34:36Z</time>
      </trkpt>
      <trkpt lat="44.77248" lon="0.76416">
        <ele>123</ele>
        <time>2013-04-29T03:34:46Z</time>
      </trkpt>
      <trkpt lat="44.77273" lon="0.76491">
        <ele>129</ele>
        <time>2013-04-29T03:35:07Z</time>
      </trkpt>
      <trkpt lat="44.7727" lon="0.76577">
        <ele>126</ele>
        <time>2013-04-29T03:35:15Z</time>
      </trkpt>
      <trkpt lat="44.77359" lon="0.76524">
        <ele>122</ele>
        <time>2013-04-29T03:35:28Z</time>
      </trkpt>
      <trkpt lat="44.7748" lon="0.76479">
        <ele>118</ele>
        <time>2013-04-29T03:35:45Z</time>
      </trkpt>
      <trkpt lat="44.7748" lon="0.76479">
        <ele>118</ele>
        <time>2013-04-29T03:35:46Z</time>
      </trkpt>
      <trkpt lat="44.77359" lon="0.76524">
        <ele>121</ele>
        <time>2013-04-29T03:36:10Z</time>
      </trkpt>
      <trkpt lat="44.77174" lon="0.76631">
        <ele>137</ele>
        <time>2013-04-29T03:37:15Z</time>
      </trkpt>
      <trkpt lat="44.7708" lon="0.76691">
        <ele>138</ele>
        <time>2013-04-29T03:37:31Z</time>
      </trkpt>
      <trkpt lat="44.76906" lon="0.76763">
        <ele>141</ele>
        <time>2013-04-29T03:38:03Z</time>
      </trkpt>
      <trkpt lat="44.76871" lon="0.76771">
        <ele>141</ele>
        <time>2013-04-29T03:38:09Z</time>
      </trkpt>
      <trkpt lat="44.76721" lon="0.7678">
        <ele>145</ele>
        <time>2013-04-29T03:38:37Z</time>
      </trkpt>
      <trkpt lat="44.76632" lon="0.76799">
        <ele>146</ele>
        <time>2013-04-29T03:38:51Z</time>
      </trkpt>
      <trkpt lat="44.76629" lon="0.76826">
        <ele>145</ele>
        <time>2013-04-29T03:38:54Z</time>
      </trkpt>
      <trkpt lat="44.76536" lon="0.77026">
        <ele>137</ele>
        <time>2013-04-29T03:39:17Z</time>
      </trkpt>
      <trkpt lat="44.76519" lon="0.77076">
        <ele>135</ele>
        <time>2013-04-29T03:39:22Z</time>
      </trkpt>
      <trkpt lat="44.76492" lon="0.77291">
        <ele>132</ele>
        <time>2013-04-29T03:39:43Z</time>
      </trkpt>
      <trkpt lat="44.76485" lon="0.77391">
        <ele>126</ele>
        <time>2013-04-29T03:39:52Z</time>
      </trkpt>
      <trkpt lat="44.76488" lon="0.77426">
        <ele>124</ele>
        <time>2013-04-29T03:39:55Z</time>
      </trkpt>
      <trkpt lat="44.76499" lon="0.77474">
        <ele>124</ele>
        <time>2013-04-29T03:40:01Z</time>
      </trkpt>
      <trkpt lat="44.76598" lon="0.77792">
        <ele>128</ele>
        <time>2013-04-29T03:40:43Z</time>
      </trkpt>
      <trkpt lat="44.76621" lon="0.77881">
        <ele>128</ele>
        <time>2013-04-29T03:40:54Z</time>
      </trkpt>
      <trkpt lat="44.76692" lon="0.78406">
        <ele>134</ele>
        <time>2013-04-29T03:41:57Z</time>
      </trkpt>
      <trkpt lat="44.76711" lon="0.78456">
        <ele>132</ele>
        <time>2013-04-29T03:42:02Z</time>
      </trkpt>
      <trkpt lat="44.76762" lon="0.78541">
        <ele>131</ele>
        <time>2013-04-29T03:42:13Z</time>
      </trkpt>
      <trkpt lat="44.76773" lon="0.78588">
        <ele>129</ele>
        <time>2013-04-29T03:42:17Z</time>
      </trkpt>
      <trkpt lat="44.76773" lon="0.7875">
        <ele>125</ele>
        <time>2013-04-29T03:42:33Z</time>
      </trkpt>
      <trkpt lat="44.76763" lon="0.78795">
        <ele>123</ele>
        <time>2013-04-29T03:42:37Z</time>
      </trkpt>
      <trkpt lat="44.76747" lon="0.78839">
        <ele>122</ele>
        <time>2013-04-29T03:42:42Z</time>
      </trkpt>
      <trkpt lat="44.76728" lon="0.78876">
        <ele>121</ele>
        <time>2013-04-29T03:42:46Z</time>
      </trkpt>
      <trkpt lat="44.76666" lon="0.78937">
        <ele>114</ele>
        <time>2013-04-29T03:42:56Z</time>
      </trkpt>
      <trkpt lat="44.76656" lon="0.78955">
        <ele>113</ele>
        <time>2013-04-29T03:42:59Z</time>
      </trkpt>
      <trkpt lat="44.7665" lon="0.78974">
        <ele>112</ele>
        <time>2013-04-29T03:43:01Z</time>
      </trkpt>
      <trkpt lat="44.76646" lon="0.79015">
        <ele>111</ele>
        <time>2013-04-29T03:43:04Z</time>
      </trkpt>
      <trkpt lat="44.76655" lon="0.7907">
        <ele>110</ele>
        <time>2013-04-29T03:43:10Z</time>
      </trkpt>
      <trkpt lat="44.76691" lon="0.7922">
        <ele>106</ele>
        <time>2013-04-29T03:43:25Z</time>
      </trkpt>
      <trkpt lat="44.76706" lon="0.79264">
        <ele>105</ele>
        <time>2013-04-29T03:43:29Z</time>
      </trkpt>
      <trkpt lat="44.76725" lon="0.79285">
        <ele>105</ele>
        <time>2013-04-29T03:43:33Z</time>
      </trkpt>
      <trkpt lat="44.76785" lon="0.79317">
        <ele>105</ele>
        <time>2013-04-29T03:43:41Z</time>
      </trkpt>
      <trkpt lat="44.76815" lon="0.79348">
        <ele>104</ele>
        <time>2013-04-29T03:43:46Z</time>
      </trkpt>
      <trkpt lat="44.76848" lon="0.79388">
        <ele>102</ele>
        <time>2013-04-29T03:43:52Z</time>
      </trkpt>
      <trkpt lat="44.76873" lon="0.79426">
        <ele>102</ele>
        <time>2013-04-29T03:43:57Z</time>
      </trkpt>
      <trkpt lat="44.76915" lon="0.79532">
        <ele>95</ele>
        <time>2013-04-29T03:44:08Z</time>
      </trkpt>
      <trkpt lat="44.76937" lon="0.79575">
        <ele>92</ele>
        <time>2013-04-29T03:44:14Z</time>
      </trkpt>
      <trkpt lat="44.76967" lon="0.79608">
        <ele>89</ele>
        <time>2013-04-29T03:44:19Z</time>
      </trkpt>
      <trkpt lat="44.7703" lon="0.79635">
        <ele>85</ele>
        <time>2013-04-29T03:44:27Z</time>
      </trkpt>
      <trkpt lat="44.77047" lon="0.79649">
        <ele>83</ele>
        <time>2013-04-29T03:44:30Z</time>
      </trkpt>
      <trkpt lat="44.77065" lon="0.79676">
        <ele>80</ele>
        <time>2013-04-29T03:44:34Z</time>
      </trkpt>
      <trkpt lat="44.77074" lon="0.79699">
        <ele>79</ele>
        <time>2013-04-29T03:44:36Z</time>
      </trkpt>
      <trkpt lat="44.77079" lon="0.79729">
        <ele>76</ele>
        <time>2013-04-29T03:44:39Z</time>
      </trkpt>
      <trkpt lat="44.77078" lon="0.79759">
        <ele>75</ele>
        <time>2013-04-29T03:44:42Z</time>
      </trkpt>
      <trkpt lat="44.77054" lon="0.79944">
        <ele>79</ele>
        <time>2013-04-29T03:45:09Z</time>
      </trkpt>
      <trkpt lat="44.77046" lon="0.7997">
        <ele>80</ele>
        <time>2013-04-29T03:45:15Z</time>
      </trkpt>
      <trkpt lat="44.77048" lon="0.79988">
        <ele>80</ele>
        <time>2013-04-29T03:45:18Z</time>
      </trkpt>
      <trkpt lat="44.77042" lon="0.8001">
        <ele>81</ele>
        <time>2013-04-29T03:45:22Z</time>
      </trkpt>
      <trkpt lat="44.77021" lon="0.80057">
        <ele>83</ele>
        <time>2013-04-29T03:45:33Z</time>
      </trkpt>
      <trkpt lat="44.77015" lon="0.80086">
        <ele>85</ele>
        <time>2013-04-29T03:45:38Z</time>
      </trkpt>
      <trkpt lat="44.77019" lon="0.80114">
        <ele>86</ele>
        <time>2013-04-29T03:45:44Z</time>
      </trkpt>
      <trkpt lat="44.77042" lon="0.80191">
        <ele>89</ele>
        <time>2013-04-29T03:46:00Z</time>
      </trkpt>
      <trkpt lat="44.77072" lon="0.80345">
        <ele>96</ele>
        <time>2013-04-29T03:46:31Z</time>
      </trkpt>
      <trkpt lat="44.77094" lon="0.80393">
        <ele>98</ele>
        <time>2013-04-29T03:46:42Z</time>
      </trkpt>
      <trkpt lat="44.77127" lon="0.80445">
        <ele>101</ele>
        <time>2013-04-29T03:46:56Z</time>
      </trkpt>
      <trkpt lat="44.77136" lon="0.8048">
        <ele>103</ele>
        <time>2013-04-29T03:47:03Z</time>
      </trkpt>
      <trkpt lat="44.77134" lon="0.80518">
        <ele>103</ele>
        <time>2013-04-29T03:47:08Z</time>
      </trkpt>
      <trkpt lat="44.77102" lon="0.80657">
        <ele>105</ele>
        <time>2013-04-29T03:47:25Z</time>
      </trkpt>
      <trkpt lat="44.77095" lon="0.80707">
        <ele>106</ele>
        <time>2013-04-29T03:47:34Z</time>
      </trkpt>
      <trkpt lat="44.77082" lon="0.80907">
        <ele>114</ele>
        <time>2013-04-29T03:48:11Z</time>
      </trkpt>
      <trkpt lat="44.77084" lon="0.80941">
        <ele>115</ele>
        <time>2013-04-29T03:48:17Z</time>
      </trkpt>
      <trkpt lat="44.77089" lon="0.80963">
        <ele>116</ele>
        <time>2013-04-29T03:48:21Z</time>
      </trkpt>
      <trkpt lat="44.77113" lon="0.81029">
        <ele>119</ele>
        <time>2013-04-29T03:48:35Z</time>
      </trkpt>
      <trkpt lat="44.77123" lon="0.81046">
        <ele>121</ele>
        <time>2013-04-29T03:48:42Z</time>
      </trkpt>
      <trkpt lat="44.77154" lon="0.81079">
        <ele>125</ele>
        <time>2013-04-29T03:48:59Z</time>
      </trkpt>
      <trkpt lat="44.7719" lon="0.811">
        <ele>131</ele>
        <time>2013-04-29T03:49:16Z</time>
      </trkpt>
      <trkpt lat="44.77223" lon="0.81148">
        <ele>131</ele>
        <time>2013-04-29T03:49:24Z</time>
      </trkpt>
      <trkpt lat="44.7726" lon="0.81178">
        <ele>131</ele>
        <time>2013-04-29T03:49:30Z</time>
      </trkpt>
      <trkpt lat="44.77302" lon="0.8124">
        <ele>132</ele>
        <time>2013-04-29T03:49:39Z</time>
      </trkpt>
      <trkpt lat="44.77485" lon="0.81361">
        <ele>146</ele>
        <time>2013-04-29T03:50:40Z</time>
      </trkpt>
      <trkpt lat="44.77631" lon="0.81432">
        <ele>151</ele>
        <time>2013-04-29T03:51:12Z</time>
      </trkpt>
      <trkpt lat="44.77662" lon="0.81463">
        <ele>152</ele>
        <time>2013-04-29T03:51:21Z</time>
      </trkpt>
      <trkpt lat="44.77676" lon="0.81486">
        <ele>153</ele>
        <time>2013-04-29T03:51:26Z</time>
      </trkpt>
      <trkpt lat="44.77728" lon="0.81597">
        <ele>157</ele>
        <time>2013-04-29T03:51:47Z</time>
      </trkpt>
      <trkpt lat="44.77738" lon="0.81638">
        <ele>158</ele>
        <time>2013-04-29T03:51:54Z</time>
      </trkpt>
      <trkpt lat="44.7774" lon="0.81663">
        <ele>158</ele>
        <time>2013-04-29T03:51:58Z</time>
      </trkpt>
      <trkpt lat="44.77737" lon="0.81704">
        <ele>159</ele>
        <time>2013-04-29T03:52:04Z</time>
      </trkpt>
      <trkpt lat="44.77711" lon="0.8188">
        <ele>164</ele>
        <time>2013-04-29T03:52:31Z</time>
      </trkpt>
      <trkpt lat="44.77711" lon="0.81932">
        <ele>163</ele>
        <time>2013-04-29T03:52:36Z</time>
      </trkpt>
      <trkpt lat="44.77715" lon="0.81953">
        <ele>163</ele>
        <time>2013-04-29T03:52:38Z</time>
      </trkpt>
      <trkpt lat="44.77729" lon="0.81987">
        <ele>163</ele>
        <time>2013-04-29T03:52:42Z</time>
      </trkpt>
      <trkpt lat="44.77876" lon="0.8224">
        <ele>162</ele>
        <time>2013-04-29T03:53:13Z</time>
      </trkpt>
      <trkpt lat="44.78117" lon="0.82709">
        <ele>170</ele>
        <time>2013-04-29T03:54:27Z</time>
      </trkpt>
      <trkpt lat="44.78156" lon="0.82776">
        <ele>170</ele>
        <time>2013-04-29T03:54:36Z</time>
      </trkpt>
      <trkpt lat="44.7857" lon="0.83285">
        <ele>172</ele>
        <time>2013-04-29T03:55:54Z</time>
      </trkpt>
      <trkpt lat="44.78584" lon="0.83307">
        <ele>171</ele>
        <time>2013-04-29T03:55:56Z</time>
      </trkpt>
      <trkpt lat="44.78602" lon="0.83346">
        <ele>171</ele>
        <time>2013-04-29T03:56:01Z</time>
      </trkpt>
      <trkpt lat="44.7863" lon="0.83449">
        <ele>170</ele>
        <time>2013-04-29T03:56:11Z</time>
      </trkpt>
      <trkpt lat="44.78669" lon="0.83627">
        <ele>171</ele>
        <time>2013-04-29T03:56:31Z</time>
      </trkpt>
      <trkpt lat="44.78675" lon="0.83889">
        <ele>175</ele>
        <time>2013-04-29T03:57:06Z</time>
      </trkpt>
      <trkpt lat="44.7869" lon="0.83961">
        <ele>175</ele>
        <time>2013-04-29T03:57:14Z</time>
      </trkpt>
      <trkpt lat="44.78713" lon="0.84021">
        <ele>176</ele>
        <time>2013-04-29T03:57:22Z</time>
      </trkpt>
      <trkpt lat="44.78734" lon="0.84061">
        <ele>175</ele>
        <time>2013-04-29T03:57:27Z</time>
      </trkpt>
      <trkpt lat="44.78865" lon="0.84264">
        <ele>171</ele>
        <time>2013-04-29T03:57:53Z</time>
      </trkpt>
      <trkpt lat="44.78988" lon="0.84444">
        <ele>167</ele>
        <time>2013-04-29T03:58:16Z</time>
      </trkpt>
      <trkpt lat="44.79038" lon="0.84493">
        <ele>168</ele>
        <time>2013-04-29T03:58:29Z</time>
      </trkpt>
      <trkpt lat="44.79213" lon="0.84643">
        <ele>175</ele>
        <time>2013-04-29T03:59:11Z</time>
      </trkpt>
      <trkpt lat="44.79237" lon="0.84685">
        <ele>175</ele>
        <time>2013-04-29T03:59:17Z</time>
      </trkpt>
      <trkpt lat="44.79334" lon="0.84911">
        <ele>177</ele>
        <time>2013-04-29T03:59:46Z</time>
      </trkpt>
      <trkpt lat="44.79365" lon="0.84965">
        <ele>176</ele>
        <time>2013-04-29T03:59:53Z</time>
      </trkpt>
      <trkpt lat="44.79402" lon="0.84998">
        <ele>176</ele>
        <time>2013-04-29T03:59:58Z</time>
      </trkpt>
      <trkpt lat="44.79633" lon="0.85163">
        <ele>185</ele>
        <time>2013-04-29T04:00:55Z</time>
      </trkpt>
      <trkpt lat="44.79671" lon="0.85186">
        <ele>185</ele>
        <time>2013-04-29T04:01:02Z</time>
      </trkpt>
      <trkpt lat="44.79691" lon="0.85188">
        <ele>186</ele>
        <time>2013-04-29T04:01:06Z</time>
      </trkpt>
      <trkpt lat="44.79829" lon="0.85119">
        <ele>189</ele>
        <time>2013-04-29T04:01:32Z</time>
      </trkpt>
      <trkpt lat="44.79868" lon="0.85106">
        <ele>189</ele>
        <time>2013-04-29T04:01:38Z</time>
      </trkpt>
      <trkpt lat="44.80249" lon="0.85126">
        <ele>192</ele>
        <time>2013-04-29T04:02:35Z</time>
      </trkpt>
      <trkpt lat="44.80279" lon="0.85106">
        <ele>192</ele>
        <time>2013-04-29T04:02:41Z</time>
      </trkpt>
      <trkpt lat="44.80434" lon="0.84938">
        <ele>194</ele>
        <time>2013-04-29T04:03:11Z</time>
      </trkpt>
      <trkpt lat="44.80461" lon="0.84923">
        <ele>193</ele>
        <time>2013-04-29T04:03:15Z</time>
      </trkpt>
      <trkpt lat="44.80498" lon="0.84923">
        <ele>192</ele>
        <time>2013-04-29T04:03:20Z</time>
      </trkpt>
      <trkpt lat="44.80545" lon="0.84957">
        <ele>192</ele>
        <time>2013-04-29T04:03:27Z</time>
      </trkpt>
      <trkpt lat="44.80576" lon="0.84993">
        <ele>191</ele>
        <time>2013-04-29T04:03:32Z</time>
      </trkpt>
      <trkpt lat="44.80588" lon="0.85031">
        <ele>190</ele>
        <time>2013-04-29T04:03:36Z</time>
      </trkpt>
      <trkpt lat="44.80593" lon="0.85107">
        <ele>190</ele>
        <time>2013-04-29T04:03:43Z</time>
      </trkpt>
      <trkpt lat="44.80607" lon="0.85127">
        <ele>188</ele>
        <time>2013-04-29T04:03:46Z</time>
      </trkpt>
      <trkpt lat="44.80626" lon="0.85133">
        <ele>187</ele>
        <time>2013-04-29T04:03:48Z</time>
      </trkpt>
      <trkpt lat="44.80684" lon="0.85123">
        <ele>183</ele>
        <time>2013-04-29T04:03:56Z</time>
      </trkpt>
      <trkpt lat="44.807" lon="0.85128">
        <ele>182</ele>
        <time>2013-04-29T04:03:58Z</time>
      </trkpt>
      <trkpt lat="44.80711" lon="0.85142">
        <ele>182</ele>
        <time>2013-04-29T04:04:00Z</time>
      </trkpt>
      <trkpt lat="44.80716" lon="0.85176">
        <ele>181</ele>
        <time>2013-04-29T04:04:04Z</time>
      </trkpt>
      <trkpt lat="44.80709" lon="0.85264">
        <ele>180</ele>
        <time>2013-04-29T04:04:12Z</time>
      </trkpt>
      <trkpt lat="44.80715" lon="0.85314">
        <ele>179</ele>
        <time>2013-04-29T04:04:17Z</time>
      </trkpt>
      <trkpt lat="44.80741" lon="0.85381">
        <ele>177</ele>
        <time>2013-04-29T04:04:24Z</time>
      </trkpt>
      <trkpt lat="44.80789" lon="0.85446">
        <ele>176</ele>
        <time>2013-04-29T04:04:33Z</time>
      </trkpt>
      <trkpt lat="44.808" lon="0.85475">
        <ele>176</ele>
        <time>2013-04-29T04:04:38Z</time>
      </trkpt>
      <trkpt lat="44.80799" lon="0.85505">
        <ele>177</ele>
        <time>2013-04-29T04:04:42Z</time>
      </trkpt>
      <trkpt lat="44.80779" lon="0.85567">
        <ele>178</ele>
        <time>2013-04-29T04:04:51Z</time>
      </trkpt>
      <trkpt lat="44.80775" lon="0.85592">
        <ele>179</ele>
        <time>2013-04-29T04:04:55Z</time>
      </trkpt>
      <trkpt lat="44.80778" lon="0.85613">
        <ele>178</ele>
        <time>2013-04-29T04:04:57Z</time>
      </trkpt>
      <trkpt lat="44.80792" lon="0.85634">
        <ele>177</ele>
        <time>2013-04-29T04:05:00Z</time>
      </trkpt>
      <trkpt lat="44.80832" lon="0.85645">
        <ele>175</ele>
        <time>2013-04-29T04:05:05Z</time>
      </trkpt>
      <trkpt lat="44.80861" lon="0.8568">
        <ele>174</ele>
        <time>2013-04-29T04:05:10Z</time>
      </trkpt>
      <trkpt lat="44.80874" lon="0.85688">
        <ele>173</ele>
        <time>2013-04-29T04:05:12Z</time>
      </trkpt>
      <trkpt lat="44.80894" lon="0.85687">
        <ele>171</ele>
        <time>2013-04-29T04:05:15Z</time>
      </trkpt>
      <trkpt lat="44.80947" lon="0.85651">
        <ele>168</ele>
        <time>2013-04-29T04:05:23Z</time>
      </trkpt>
      <trkpt lat="44.8098" lon="0.85648">
        <ele>166</ele>
        <time>2013-04-29T04:05:27Z</time>
      </trkpt>
      <trkpt lat="44.81005" lon="0.85659">
        <ele>165</ele>
        <time>2013-04-29T04:05:31Z</time>
      </trkpt>
      <trkpt lat="44.81096" lon="0.85721">
        <ele>164</ele>
        <time>2013-04-29T04:05:44Z</time>
      </trkpt>
      <trkpt lat="44.81123" lon="0.85724">
        <ele>161</ele>
        <time>2013-04-29T04:05:48Z</time>
      </trkpt>
      <trkpt lat="44.81167" lon="0.8571">
        <ele>157</ele>
        <time>2013-04-29T04:05:54Z</time>
      </trkpt>
      <trkpt lat="44.81188" lon="0.85709">
        <ele>156</ele>
        <time>2013-04-29T04:05:57Z</time>
      </trkpt>
      <trkpt lat="44.81202" lon="0.85714">
        <ele>156</ele>
        <time>2013-04-29T04:05:59Z</time>
      </trkpt>
      <trkpt lat="44.81226" lon="0.85737">
        <ele>156</ele>
        <time>2013-04-29T04:06:02Z</time>
      </trkpt>
      <trkpt lat="44.81251" lon="0.85779">
        <ele>156</ele>
        <time>2013-04-29T04:06:08Z</time>
      </trkpt>
      <trkpt lat="44.81261" lon="0.85819">
        <ele>156</ele>
        <time>2013-04-29T04:06:12Z</time>
      </trkpt>
      <trkpt lat="44.81255" lon="0.85897">
        <ele>154</ele>
        <time>2013-04-29T04:06:19Z</time>
      </trkpt>
      <trkpt lat="44.81261" lon="0.85965">
        <ele>153</ele>
        <time>2013-04-29T04:06:26Z</time>
      </trkpt>
      <trkpt lat="44.81224" lon="0.86202">
        <ele>149</ele>
        <time>2013-04-29T04:06:49Z</time>
      </trkpt>
      <trkpt lat="44.81223" lon="0.86237">
        <ele>148</ele>
        <time>2013-04-29T04:06:52Z</time>
      </trkpt>
      <trkpt lat="44.8123" lon="0.86328">
        <ele>145</ele>
        <time>2013-04-29T04:07:01Z</time>
      </trkpt>
      <trkpt lat="44.8122" lon="0.8638">
        <ele>144</ele>
        <time>2013-04-29T04:07:06Z</time>
      </trkpt>
      <trkpt lat="44.81217" lon="0.8642">
        <ele>141</ele>
        <time>2013-04-29T04:07:10Z</time>
      </trkpt>
      <trkpt lat="44.81221" lon="0.86637">
        <ele>128</ele>
        <time>2013-04-29T04:07:30Z</time>
      </trkpt>
      <trkpt lat="44.81189" lon="0.86825">
        <ele>135</ele>
        <time>2013-04-29T04:08:05Z</time>
      </trkpt>
      <trkpt lat="44.81185" lon="0.86904">
        <ele>136</ele>
        <time>2013-04-29T04:08:17Z</time>
      </trkpt>
      <trkpt lat="44.8119" lon="0.87726">
        <ele>156</ele>
        <time>2013-04-29T04:10:21Z</time>
      </trkpt>
      <trkpt lat="44.81206" lon="0.87808">
        <ele>161</ele>
        <time>2013-04-29T04:10:41Z</time>
      </trkpt>
      <trkpt lat="44.81219" lon="0.87906">
        <ele>167</ele>
        <time>2013-04-29T04:11:05Z</time>
      </trkpt>
      <trkpt lat="44.81246" lon="0.8801">
        <ele>167</ele>
        <time>2013-04-29T04:11:17Z</time>
      </trkpt>
      <trkpt lat="44.81248" lon="0.88029">
        <ele>168</ele>
        <time>2013-04-29T04:11:20Z</time>
      </trkpt>
      <trkpt lat="44.8124" lon="0.88085">
        <ele>171</ele>
        <time>2013-04-29T04:11:33Z</time>
      </trkpt>
      <trkpt lat="44.81211" lon="0.88192">
        <ele>178</ele>
        <time>2013-04-29T04:12:00Z</time>
      </trkpt>
      <trkpt lat="44.81211" lon="0.88223">
        <ele>178</ele>
        <time>2013-04-29T04:12:04Z</time>
      </trkpt>
      <trkpt lat="44.81219" lon="0.88247">
        <ele>179</ele>
        <time>2013-04-29T04:12:08Z</time>
      </trkpt>
      <trkpt lat="44.81233" lon="0.88264">
        <ele>179</ele>
        <time>2013-04-29T04:12:12Z</time>
      </trkpt>
      <trkpt lat="44.81256" lon="0.88273">
        <ele>180</ele>
        <time>2013-04-29T04:12:16Z</time>
      </trkpt>
      <trkpt lat="44.81274" lon="0.88273">
        <ele>180</ele>
        <time>2013-04-29T04:12:20Z</time>
      </trkpt>
      <trkpt lat="44.81285" lon="0.88267">
        <ele>181</ele>
        <time>2013-04-29T04:12:22Z</time>
      </trkpt>
      <trkpt lat="44.81298" lon="0.88245">
        <ele>181</ele>
        <time>2013-04-29T04:12:25Z</time>
      </trkpt>
      <trkpt lat="44.81314" lon="0.88182">
        <ele>181</ele>
        <time>2013-04-29T04:12:33Z</time>
      </trkpt>
      <trkpt lat="44.81334" lon="0.88138">
        <ele>182</ele>
        <time>2013-04-29T04:12:39Z</time>
      </trkpt>
      <trkpt lat="44.81355" lon="0.88115">
        <ele>183</ele>
        <time>2013-04-29T04:12:45Z</time>
      </trkpt>
      <trkpt lat="44.81385" lon="0.88102">
        <ele>184</ele>
        <time>2013-04-29T04:12:52Z</time>
      </trkpt>
      <trkpt lat="44.81414" lon="0.88103">
        <ele>185</ele>
        <time>2013-04-29T04:12:59Z</time>
      </trkpt>
      <trkpt lat="44.81423" lon="0.88107">
        <ele>186</ele>
        <time>2013-04-29T04:13:01Z</time>
      </trkpt>
      <trkpt lat="44.81469" lon="0.88146">
        <ele>189</ele>
        <time>2013-04-29T04:13:18Z</time>
      </trkpt>
      <trkpt lat="44.81525" lon="0.88139">
        <ele>194</ele>
        <time>2013-04-29T04:13:35Z</time>
      </trkpt>
      <trkpt lat="44.81584" lon="0.8815">
        <ele>196</ele>
        <time>2013-04-29T04:13:49Z</time>
      </trkpt>
      <trkpt lat="44.8164" lon="0.88178">
        <ele>199</ele>
        <time>2013-04-29T04:14:03Z</time>
      </trkpt>
      <trkpt lat="44.81665" lon="0.88199">
        <ele>199</ele>
        <time>2013-04-29T04:14:09Z</time>
      </trkpt>
      <trkpt lat="44.81715" lon="0.88271">
        <ele>202</ele>
        <time>2013-04-29T04:14:24Z</time>
      </trkpt>
      <trkpt lat="44.81735" lon="0.8829">
        <ele>200</ele>
        <time>2013-04-29T04:14:27Z</time>
      </trkpt>
      <trkpt lat="44.8179" lon="0.88311">
        <ele>197</ele>
        <time>2013-04-29T04:14:34Z</time>
      </trkpt>
      <trkpt lat="44.81813" lon="0.88331">
        <ele>196</ele>
        <time>2013-04-29T04:14:38Z</time>
      </trkpt>
      <trkpt lat="44.81824" lon="0.88348">
        <ele>195</ele>
        <time>2013-04-29T04:14:40Z</time>
      </trkpt>
      <trkpt lat="44.81837" lon="0.88389">
        <ele>194</ele>
        <time>2013-04-29T04:14:44Z</time>
      </trkpt>
      <trkpt lat="44.8184" lon="0.88453">
        <ele>194</ele>
        <time>2013-04-29T04:14:50Z</time>
      </trkpt>
      <trkpt lat="44.81835" lon="0.88524">
        <ele>191</ele>
        <time>2013-04-29T04:14:57Z</time>
      </trkpt>
      <trkpt lat="44.81841" lon="0.88548">
        <ele>190</ele>
        <time>2013-04-29T04:15:00Z</time>
      </trkpt>
      <trkpt lat="44.81854" lon="0.88566">
        <ele>189</ele>
        <time>2013-04-29T04:15:02Z</time>
      </trkpt>
      <trkpt lat="44.81864" lon="0.88571">
        <ele>189</ele>
        <time>2013-04-29T04:15:03Z</time>
      </trkpt>
      <trkpt lat="44.81909" lon="0.88587">
        <ele>187</ele>
        <time>2013-04-29T04:15:10Z</time>
      </trkpt>
      <trkpt lat="44.81933" lon="0.88621">
        <ele>184</ele>
        <time>2013-04-29T04:15:14Z</time>
      </trkpt>
      <trkpt lat="44.81948" lon="0.88634">
        <ele>183</ele>
        <time>2013-04-29T04:15:17Z</time>
      </trkpt>
      <trkpt lat="44.81962" lon="0.88636">
        <ele>182</ele>
        <time>2013-04-29T04:15:18Z</time>
      </trkpt>
      <trkpt lat="44.81982" lon="0.88625">
        <ele>180</ele>
        <time>2013-04-29T04:15:21Z</time>
      </trkpt>
      <trkpt lat="44.82029" lon="0.88503">
        <ele>173</ele>
        <time>2013-04-29T04:15:34Z</time>
      </trkpt>
      <trkpt lat="44.82048" lon="0.88485">
        <ele>172</ele>
        <time>2013-04-29T04:15:38Z</time>
      </trkpt>
      <trkpt lat="44.82072" lon="0.88477">
        <ele>171</ele>
        <time>2013-04-29T04:15:41Z</time>
      </trkpt>
      <trkpt lat="44.82097" lon="0.88481">
        <ele>170</ele>
        <time>2013-04-29T04:15:44Z</time>
      </trkpt>
      <trkpt lat="44.822" lon="0.88516">
        <ele>166</ele>
        <time>2013-04-29T04:15:58Z</time>
      </trkpt>
      <trkpt lat="44.8229" lon="0.88569">
        <ele>166</ele>
        <time>2013-04-29T04:16:11Z</time>
      </trkpt>
      <trkpt lat="44.82367" lon="0.88588">
        <ele>159</ele>
        <time>2013-04-29T04:16:22Z</time>
      </trkpt>
      <trkpt lat="44.82401" lon="0.88601">
        <ele>157</ele>
        <time>2013-04-29T04:16:27Z</time>
      </trkpt>
      <trkpt lat="44.82428" lon="0.8862">
        <ele>155</ele>
        <time>2013-04-29T04:16:31Z</time>
      </trkpt>
      <trkpt lat="44.82469" lon="0.88667">
        <ele>151</ele>
        <time>2013-04-29T04:16:38Z</time>
      </trkpt>
      <trkpt lat="44.82586" lon="0.88851">
        <ele>141</ele>
        <time>2013-04-29T04:17:01Z</time>
      </trkpt>
      <trkpt lat="44.82593" lon="0.88871">
        <ele>140</ele>
        <time>2013-04-29T04:17:03Z</time>
      </trkpt>
      <trkpt lat="44.82606" lon="0.88945">
        <ele>138</ele>
        <time>2013-04-29T04:17:10Z</time>
      </trkpt>
      <trkpt lat="44.82631" lon="0.89024">
        <ele>137</ele>
        <time>2013-04-29T04:17:19Z</time>
      </trkpt>
      <trkpt lat="44.82628" lon="0.8906">
        <ele>136</ele>
        <time>2013-04-29T04:17:22Z</time>
      </trkpt>
      <trkpt lat="44.82612" lon="0.89097">
        <ele>134</ele>
        <time>2013-04-29T04:17:26Z</time>
      </trkpt>
      <trkpt lat="44.82569" lon="0.89126">
        <ele>133</ele>
        <time>2013-04-29T04:17:32Z</time>
      </trkpt>
      <trkpt lat="44.82555" lon="0.89143">
        <ele>132</ele>
        <time>2013-04-29T04:17:35Z</time>
      </trkpt>
      <trkpt lat="44.82549" lon="0.89173">
        <ele>131</ele>
        <time>2013-04-29T04:17:38Z</time>
      </trkpt>
      <trkpt lat="44.82558" lon="0.89203">
        <ele>130</ele>
        <time>2013-04-29T04:17:41Z</time>
      </trkpt>
      <trkpt lat="44.82573" lon="0.89219">
        <ele>129</ele>
        <time>2013-04-29T04:17:43Z</time>
      </trkpt>
      <trkpt lat="44.82624" lon="0.89247">
        <ele>127</ele>
        <time>2013-04-29T04:17:51Z</time>
      </trkpt>
      <trkpt lat="44.82673" lon="0.89284">
        <ele>123</ele>
        <time>2013-04-29T04:17:58Z</time>
      </trkpt>
      <trkpt lat="44.8278" lon="0.89295">
        <ele>118</ele>
        <time>2013-04-29T04:18:13Z</time>
      </trkpt>
      <trkpt lat="44.82804" lon="0.89303">
        <ele>117</ele>
        <time>2013-04-29T04:18:16Z</time>
      </trkpt>
      <trkpt lat="44.82828" lon="0.89323">
        <ele>115</ele>
        <time>2013-04-29T04:18:20Z</time>
      </trkpt>
      <trkpt lat="44.82849" lon="0.89361">
        <ele>114</ele>
        <time>2013-04-29T04:18:24Z</time>
      </trkpt>
      <trkpt lat="44.82896" lon="0.89479">
        <ele>111</ele>
        <time>2013-04-29T04:18:37Z</time>
      </trkpt>
      <trkpt lat="44.82905" lon="0.89522">
        <ele>111</ele>
        <time>2013-04-29T04:18:41Z</time>
      </trkpt>
      <trkpt lat="44.82919" lon="0.89634">
        <ele>111</ele>
        <time>2013-04-29T04:18:52Z</time>
      </trkpt>
      <trkpt lat="44.82931" lon="0.89682">
        <ele>109</ele>
        <time>2013-04-29T04:18:57Z</time>
      </trkpt>
      <trkpt lat="44.82959" lon="0.89734">
        <ele>107</ele>
        <time>2013-04-29T04:19:03Z</time>
      </trkpt>
      <trkpt lat="44.83008" lon="0.89792">
        <ele>104</ele>
        <time>2013-04-29T04:19:12Z</time>
      </trkpt>
      <trkpt lat="44.83061" lon="0.89845">
        <ele>101</ele>
        <time>2013-04-29T04:19:20Z</time>
      </trkpt>
      <trkpt lat="44.83079" lon="0.89854">
        <ele>100</ele>
        <time>2013-04-29T04:19:23Z</time>
      </trkpt>
      <trkpt lat="44.83094" lon="0.89855">
        <ele>100</ele>
        <time>2013-04-29T04:19:25Z</time>
      </trkpt>
      <trkpt lat="44.83167" lon="0.89828">
        <ele>97</ele>
        <time>2013-04-29T04:19:35Z</time>
      </trkpt>
      <trkpt lat="44.83202" lon="0.8983">
        <ele>96</ele>
        <time>2013-04-29T04:19:40Z</time>
      </trkpt>
      <trkpt lat="44.83385" lon="0.89901">
        <ele>94</ele>
        <time>2013-04-29T04:20:05Z</time>
      </trkpt>
      <trkpt lat="44.835" lon="0.89909">
        <ele>92</ele>
        <time>2013-04-29T04:20:20Z</time>
      </trkpt>
      <trkpt lat="44.83539" lon="0.89923">
        <ele>93</ele>
        <time>2013-04-29T04:20:29Z</time>
      </trkpt>
      <trkpt lat="44.83558" lon="0.89935">
        <ele>94</ele>
        <time>2013-04-29T04:20:34Z</time>
      </trkpt>
      <trkpt lat="44.83603" lon="0.89976">
        <ele>96</ele>
        <time>2013-04-29T04:20:45Z</time>
      </trkpt>
      <trkpt lat="44.83803" lon="0.90179">
        <ele>91</ele>
        <time>2013-04-29T04:21:18Z</time>
      </trkpt>
      <trkpt lat="44.83916" lon="0.90238">
        <ele>87</ele>
        <time>2013-04-29T04:21:34Z</time>
      </trkpt>
      <trkpt lat="44.83943" lon="0.90263">
        <ele>86</ele>
        <time>2013-04-29T04:21:39Z</time>
      </trkpt>
      <trkpt lat="44.83976" lon="0.90315">
        <ele>85</ele>
        <time>2013-04-29T04:21:45Z</time>
      </trkpt>
      <trkpt lat="44.83988" lon="0.90327">
        <ele>85</ele>
        <time>2013-04-29T04:21:47Z</time>
      </trkpt>
      <trkpt lat="44.84047" lon="0.90351">
        <ele>83</ele>
        <time>2013-04-29T04:21:55Z</time>
      </trkpt>
      <trkpt lat="44.84098" lon="0.90384">
        <ele>82</ele>
        <time>2013-04-29T04:22:03Z</time>
      </trkpt>
      <trkpt lat="44.84121" lon="0.90419">
        <ele>82</ele>
        <time>2013-04-29T04:22:10Z</time>
      </trkpt>
      <trkpt lat="44.8415" lon="0.90566">
        <ele>86</ele>
        <time>2013-04-29T04:22:31Z</time>
      </trkpt>
      <trkpt lat="44.84162" lon="0.90607">
        <ele>84</ele>
        <time>2013-04-29T04:22:36Z</time>
      </trkpt>
      <trkpt lat="44.84172" lon="0.90625">
        <ele>84</ele>
        <time>2013-04-29T04:22:38Z</time>
      </trkpt>
      <trkpt lat="44.84422" lon="0.90889">
        <ele>73</ele>
        <time>2013-04-29T04:23:19Z</time>
      </trkpt>
      <trkpt lat="44.84562" lon="0.91028">
        <ele>66</ele>
        <time>2013-04-29T04:23:42Z</time>
      </trkpt>
      <trkpt lat="44.84599" lon="0.91123">
        <ele>65</ele>
        <time>2013-04-29T04:23:53Z</time>
      </trkpt>
      <trkpt lat="44.84604" lon="0.91057">
        <ele>65</ele>
        <time>2013-04-29T04:23:59Z</time>
      </trkpt>
      <trkpt lat="44.84605" lon="0.90946">
        <ele>65</ele>
        <time>2013-04-29T04:24:09Z</time>
      </trkpt>
      <trkpt lat="44.84605" lon="0.90946">
        <ele>65</ele>
        <time>2013-04-29T04:24:10Z</time>
      </trkpt>
      <trkpt lat="44.846" lon="0.91132">
        <ele>65</ele>
        <time>2013-04-29T04:24:28Z</time>
      </trkpt>
      <trkpt lat="44.84624" lon="0.91197">
        <ele>64</ele>
        <time>2013-04-29T04:24:35Z</time>
      </trkpt>
      <trkpt lat="44.84637" lon="0.91171">
        <ele>64</ele>
        <time>2013-04-29T04:24:38Z</time>
      </trkpt>
      <trkpt lat="44.84658" lon="0.91068">
        <ele>64</ele>
        <time>2013-04-29T04:24:48Z</time>
      </trkpt>
      <trkpt lat="44.8468" lon="0.90989">
        <ele>64</ele>
        <time>2013-04-29T04:24:56Z</time>
      </trkpt>
      <trkpt lat="44.84722" lon="0.90904">
        <ele>62</ele>
        <time>2013-04-29T04:25:06Z</time>
      </trkpt>
      <trkpt lat="44.84746" lon="0.90823">
        <ele>62</ele>
        <time>2013-04-29T04:25:14Z</time>
      </trkpt>
      <trkpt lat="44.84755" lon="0.90815">
        <ele>61</ele>
        <time>2013-04-29T04:25:16Z</time>
      </trkpt>
      <trkpt lat="44.84774" lon="0.90823">
        <ele>61</ele>
        <time>2013-04-29T04:25:18Z</time>
      </trkpt>
      <trkpt lat="44.84815" lon="0.90869">
        <ele>60</ele>
        <time>2013-04-29T04:25:25Z</time>
      </trkpt>
      <trkpt lat="44.84873" lon="0.90906">
        <ele>59</ele>
        <time>2013-04-29T04:25:34Z</time>
      </trkpt>
      <trkpt lat="44.85112" lon="0.91029">
        <ele>55</ele>
        <time>2013-04-29T04:26:08Z</time>
      </trkpt>
      <trkpt lat="44.8516" lon="0.91046">
        <ele>54</ele>
        <time>2013-04-29T04:26:14Z</time>
      </trkpt>
      <trkpt lat="44.852" lon="0.91053">
        <ele>53</ele>
        <time>2013-04-29T04:26:20Z</time>
      </trkpt>
      <trkpt lat="44.85271" lon="0.91056">
        <ele>53</ele>
        <time>2013-04-29T04:26:29Z</time>
      </trkpt>
      <trkpt lat="44.85296" lon="0.91053">
        <ele>53</ele>
        <time>2013-04-29T04:26:33Z</time>
      </trkpt>
      <trkpt lat="44.8533" lon="0.9104">
        <ele>53</ele>
        <time>2013-04-29T04:26:39Z</time>
      </trkpt>
      <trkpt lat="44.85359" lon="0.91018">
        <ele>54</ele>
        <time>2013-04-29T04:26:44Z</time>
      </trkpt>
      <trkpt lat="44.85425" lon="0.90939">
        <ele>54</ele>
        <time>2013-04-29T04:26:56Z</time>
      </trkpt>
      <trkpt lat="44.8546" lon="0.90915">
        <ele>54</ele>
        <time>2013-04-29T04:27:01Z</time>
      </trkpt>
      <trkpt lat="44.85628" lon="0.90907">
        <ele>70</ele>
        <time>2013-04-29T04:28:02Z</time>
      </trkpt>
      <trkpt lat="44.85629" lon="0.91">
        <ele>71</ele>
        <time>2013-04-29T04:28:15Z</time>
      </trkpt>
      <trkpt lat="44.85644" lon="0.91267">
        <ele>77</ele>
        <time>2013-04-29T04:28:53Z</time>
      </trkpt>
      <trkpt lat="44.85667" lon="0.91489">
        <ele>76</ele>
        <time>2013-04-29T04:29:14Z</time>
      </trkpt>
      <trkpt lat="44.857" lon="0.91746">
        <ele>65</ele>
        <time>2013-04-29T04:29:39Z</time>
      </trkpt>
      <trkpt lat="44.85703" lon="0.91787">
        <ele>62</ele>
        <time>2013-04-29T04:29:43Z</time>
      </trkpt>
      <trkpt lat="44.85702" lon="0.91833">
        <ele>60</ele>
        <time>2013-04-29T04:29:47Z</time>
      </trkpt>
      <trkpt lat="44.85692" lon="0.91866">
        <ele>58</ele>
        <time>2013-04-29T04:29:50Z</time>
      </trkpt>
      <trkpt lat="44.85681" lon="0.9189">
        <ele>57</ele>
        <time>2013-04-29T04:29:53Z</time>
      </trkpt>
      <trkpt lat="44.8564" lon="0.91938">
        <ele>58</ele>
        <time>2013-04-29T04:30:03Z</time>
      </trkpt>
      <trkpt lat="44.85616" lon="0.91959">
        <ele>59</ele>
        <time>2013-04-29T04:30:09Z</time>
      </trkpt>
      <trkpt lat="44.85594" lon="0.92004">
        <ele>60</ele>
        <time>2013-04-29T04:30:16Z</time>
      </trkpt>
      <trkpt lat="44.85554" lon="0.92263">
        <ele>66</ele>
        <time>2013-04-29T04:30:56Z</time>
      </trkpt>
      <trkpt lat="44.85548" lon="0.92345">
        <ele>69</ele>
        <time>2013-04-29T04:31:13Z</time>
      </trkpt>
      <trkpt lat="44.85529" lon="0.92446">
        <ele>75</ele>
        <time>2013-04-29T04:31:35Z</time>
      </trkpt>
      <trkpt lat="44.85501" lon="0.92558">
        <ele>74</ele>
        <time>2013-04-29T04:31:46Z</time>
      </trkpt>
      <trkpt lat="44.85415" lon="0.92817">
        <ele>73</ele>
        <time>2013-04-29T04:32:14Z</time>
      </trkpt>
      <trkpt lat="44.85415" lon="0.92817">
        <ele>73</ele>
        <time>2013-04-29T04:32:15Z</time>
      </trkpt>
      <trkpt lat="44.85352" lon="0.93004">
        <ele>79</ele>
        <time>2013-04-29T04:32:49Z</time>
      </trkpt>
      <trkpt lat="44.85302" lon="0.93106">
        <ele>75</ele>
        <time>2013-04-29T04:33:00Z</time>
      </trkpt>
      <trkpt lat="44.85286" lon="0.93152">
        <ele>74</ele>
        <time>2013-04-29T04:33:05Z</time>
      </trkpt>
      <trkpt lat="44.85104" lon="0.9374">
        <ele>73</ele>
        <time>2013-04-29T04:34:06Z</time>
      </trkpt>
      <trkpt lat="44.85041" lon="0.93894">
        <ele>74</ele>
        <time>2013-04-29T04:34:25Z</time>
      </trkpt>
      <trkpt lat="44.84996" lon="0.93991">
        <ele>73</ele>
        <time>2013-04-29T04:34:36Z</time>
      </trkpt>
      <trkpt lat="44.84787" lon="0.94326">
        <ele>72</ele>
        <time>2013-04-29T04:35:18Z</time>
      </trkpt>
      <trkpt lat="44.84642" lon="0.94516">
        <ele>71</ele>
        <time>2013-04-29T04:35:45Z</time>
      </trkpt>
      <trkpt lat="44.84534" lon="0.94643">
        <ele>74</ele>
        <time>2013-04-29T04:36:11Z</time>
      </trkpt>
      <trkpt lat="44.84473" lon="0.94727">
        <ele>71</ele>
        <time>2013-04-29T04:36:22Z</time>
      </trkpt>
      <trkpt lat="44.84364" lon="0.94911">
        <ele>68</ele>
        <time>2013-04-29T04:36:45Z</time>
      </trkpt>
      <trkpt lat="44.84293" lon="0.95063">
        <ele>60</ele>
        <time>2013-04-29T04:37:02Z</time>
      </trkpt>
      <trkpt lat="44.84228" lon="0.95133">
        <ele>60</ele>
        <time>2013-04-29T04:37:14Z</time>
      </trkpt>
      <trkpt lat="44.84051" lon="0.95301">
        <ele>61</ele>
        <time>2013-04-29T04:37:44Z</time>
      </trkpt>
      <trkpt lat="44.84026" lon="0.9533">
        <ele>61</ele>
        <time>2013-04-29T04:37:49Z</time>
      </trkpt>
      <trkpt lat="44.83937" lon="0.95476">
        <ele>63</ele>
        <time>2013-04-29T04:38:11Z</time>
      </trkpt>
      <trkpt lat="44.83823" lon="0.95647">
        <ele>64</ele>
        <time>2013-04-29T04:38:36Z</time>
      </trkpt>
      <trkpt lat="44.83806" lon="0.95678">
        <ele>64</ele>
        <time>2013-04-29T04:38:40Z</time>
      </trkpt>
      <trkpt lat="44.83773" lon="0.95789">
        <ele>65</ele>
        <time>2013-04-29T04:38:53Z</time>
      </trkpt>
      <trkpt lat="44.8368" lon="0.96018">
        <ele>73</ele>
        <time>2013-04-29T04:39:38Z</time>
      </trkpt>
      <trkpt lat="44.83643" lon="0.96122">
        <ele>74</ele>
        <time>2013-04-29T04:39:51Z</time>
      </trkpt>
      <trkpt lat="44.83548" lon="0.96488">
        <ele>78</ele>
        <time>2013-04-29T04:40:38Z</time>
      </trkpt>
      <trkpt lat="44.83489" lon="0.96731">
        <ele>80</ele>
        <time>2013-04-29T04:41:07Z</time>
      </trkpt>
      <trkpt lat="44.83471" lon="0.9679">
        <ele>80</ele>
        <time>2013-04-29T04:41:14Z</time>
      </trkpt>
      <trkpt lat="44.83447" lon="0.96832">
        <ele>80</ele>
        <time>2013-04-29T04:41:20Z</time>
      </trkpt>
      <trkpt lat="44.83287" lon="0.97059">
        <ele>83</ele>
        <time>2013-04-29T04:41:55Z</time>
      </trkpt>
      <trkpt lat="44.83241" lon="0.97133">
        <ele>77</ele>
        <time>2013-04-29T04:42:05Z</time>
      </trkpt>
      <trkpt lat="44.83232" lon="0.97182">
        <ele>75</ele>
        <time>2013-04-29T04:42:10Z</time>
      </trkpt>
      <trkpt lat="44.83236" lon="0.97212">
        <ele>76</ele>
        <time>2013-04-29T04:42:16Z</time>
      </trkpt>
      <trkpt lat="44.83241" lon="0.97222">
        <ele>76</ele>
        <time>2013-04-29T04:42:18Z</time>
      </trkpt>
      <trkpt lat="44.83256" lon="0.97234">
        <ele>77</ele>
        <time>2013-04-29T04:42:23Z</time>
      </trkpt>
      <trkpt lat="44.83323" lon="0.97261">
        <ele>82</ele>
        <time>2013-04-29T04:42:42Z</time>
      </trkpt>
      <trkpt lat="44.83329" lon="0.97272">
        <ele>81</ele>
        <time>2013-04-29T04:42:43Z</time>
      </trkpt>
      <trkpt lat="44.83327" lon="0.97288">
        <ele>80</ele>
        <time>2013-04-29T04:42:45Z</time>
      </trkpt>
      <trkpt lat="44.83282" lon="0.97296">
        <ele>77</ele>
        <time>2013-04-29T04:42:51Z</time>
      </trkpt>
      <trkpt lat="44.83224" lon="0.97318">
        <ele>73</ele>
        <time>2013-04-29T04:42:59Z</time>
      </trkpt>
      <trkpt lat="44.83205" lon="0.97337">
        <ele>72</ele>
        <time>2013-04-29T04:43:02Z</time>
      </trkpt>
      <trkpt lat="44.83196" lon="0.97361">
        <ele>71</ele>
        <time>2013-04-29T04:43:05Z</time>
      </trkpt>
      <trkpt lat="44.83186" lon="0.97457">
        <ele>69</ele>
        <time>2013-04-29T04:43:14Z</time>
      </trkpt>
      <trkpt lat="44.83169" lon="0.97719">
        <ele>65</ele>
        <time>2013-04-29T04:43:39Z</time>
      </trkpt>
      <trkpt lat="44.83133" lon="0.98899">
        <ele>63</ele>
        <time>2013-04-29T04:45:31Z</time>
      </trkpt>
      <trkpt lat="44.83122" lon="0.98946">
        <ele>62</ele>
        <time>2013-04-29T04:45:35Z</time>
      </trkpt>
      <trkpt lat="44.83106" lon="0.98987">
        <ele>61</ele>
        <time>2013-04-29T04:45:40Z</time>
      </trkpt>
      <trkpt lat="44.83081" lon="0.99031">
        <ele>60</ele>
        <time>2013-04-29T04:45:45Z</time>
      </trkpt>
      <trkpt lat="44.83049" lon="0.9907">
        <ele>60</ele>
        <time>2013-04-29T04:45:52Z</time>
      </trkpt>
      <trkpt lat="44.83067" lon="0.99086">
        <ele>61</ele>
        <time>2013-04-29T04:45:56Z</time>
      </trkpt>
      <trkpt lat="44.83097" lon="0.99126">
        <ele>61</ele>
        <time>2013-04-29T04:46:03Z</time>
      </trkpt>
      <trkpt lat="44.83589" lon="0.99981">
        <ele>75</ele>
        <time>2013-04-29T04:48:19Z</time>
      </trkpt>
      <trkpt lat="44.8367" lon="1.00107">
        <ele>74</ele>
        <time>2013-04-29T04:48:35Z</time>
      </trkpt>
      <trkpt lat="44.8367" lon="1.00107">
        <ele>74</ele>
        <time>2013-04-29T04:48:36Z</time>
      </trkpt>
      <trkpt lat="44.83728" lon="1.00193">
        <ele>74</ele>
        <time>2013-04-29T04:48:49Z</time>
      </trkpt>
      <trkpt lat="44.83954" lon="1.00493">
        <ele>77</ele>
        <time>2013-04-29T04:49:36Z</time>
      </trkpt>
      <trkpt lat="44.84094" lon="1.00695">
        <ele>73</ele>
        <time>2013-04-29T04:50:03Z</time>
      </trkpt>
      <trkpt lat="44.84122" lon="1.00741">
        <ele>73</ele>
        <time>2013-04-29T04:50:09Z</time>
      </trkpt>
      <trkpt lat="44.84264" lon="1.01014">
        <ele>74</ele>
        <time>2013-04-29T04:50:43Z</time>
      </trkpt>
      <trkpt lat="44.84423" lon="1.01252">
        <ele>70</ele>
        <time>2013-04-29T04:51:14Z</time>
      </trkpt>
      <trkpt lat="44.84458" lon="1.01311">
        <ele>71</ele>
        <time>2013-04-29T04:51:25Z</time>
      </trkpt>
      <trkpt lat="44.8454" lon="1.01476">
        <ele>75</ele>
        <time>2013-04-29T04:51:53Z</time>
      </trkpt>
      <trkpt lat="44.84577" lon="1.01543">
        <ele>75</ele>
        <time>2013-04-29T04:52:01Z</time>
      </trkpt>
      <trkpt lat="44.84671" lon="1.01672">
        <ele>75</ele>
        <time>2013-04-29T04:52:18Z</time>
      </trkpt>
      <trkpt lat="44.84731" lon="1.01745">
        <ele>73</ele>
        <time>2013-04-29T04:52:29Z</time>
      </trkpt>
      <trkpt lat="44.84848" lon="1.01863">
        <ele>71</ele>
        <time>2013-04-29T04:52:48Z</time>
      </trkpt>
      <trkpt lat="44.84908" lon="1.01914">
        <ele>73</ele>
        <time>2013-04-29T04:53:02Z</time>
      </trkpt>
      <trkpt lat="44.84941" lon="1.0193">
        <ele>74</ele>
        <time>2013-04-29T04:53:09Z</time>
      </trkpt>
      <trkpt lat="44.85136" lon="1.01973">
        <ele>83</ele>
        <time>2013-04-29T04:53:57Z</time>
      </trkpt>
      <trkpt lat="44.85196" lon="1.01994">
        <ele>79</ele>
        <time>2013-04-29T04:54:06Z</time>
      </trkpt>
      <trkpt lat="44.85222" lon="1.01994">
        <ele>77</ele>
        <time>2013-04-29T04:54:09Z</time>
      </trkpt>
      <trkpt lat="44.85263" lon="1.01979">
        <ele>75</ele>
        <time>2013-04-29T04:54:15Z</time>
      </trkpt>
      <trkpt lat="44.85308" lon="1.01991">
        <ele>75</ele>
        <time>2013-04-29T04:54:21Z</time>
      </trkpt>
      <trkpt lat="44.8536" lon="1.01995">
        <ele>75</ele>
        <time>2013-04-29T04:54:28Z</time>
      </trkpt>
      <trkpt lat="44.85502" lon="1.0204">
        <ele>82</ele>
        <time>2013-04-29T04:55:04Z</time>
      </trkpt>
      <trkpt lat="44.85572" lon="1.0208">
        <ele>76</ele>
        <time>2013-04-29T04:55:14Z</time>
      </trkpt>
      <trkpt lat="44.85661" lon="1.02159">
        <ele>70</ele>
        <time>2013-04-29T04:55:28Z</time>
      </trkpt>
      <trkpt lat="44.85685" lon="1.02175">
        <ele>70</ele>
        <time>2013-04-29T04:55:32Z</time>
      </trkpt>
      <trkpt lat="44.86313" lon="1.0247">
        <ele>78</ele>
        <time>2013-04-29T04:57:19Z</time>
      </trkpt>
      <trkpt lat="44.86375" lon="1.02505">
        <ele>74</ele>
        <time>2013-04-29T04:57:28Z</time>
      </trkpt>
      <trkpt lat="44.86448" lon="1.02563">
        <ele>70</ele>
        <time>2013-04-29T04:57:39Z</time>
      </trkpt>
      <trkpt lat="44.86501" lon="1.02626">
        <ele>72</ele>
        <time>2013-04-29T04:57:55Z</time>
      </trkpt>
      <trkpt lat="44.86542" lon="1.02693">
        <ele>75</ele>
        <time>2013-04-29T04:58:09Z</time>
      </trkpt>
      <trkpt lat="44.86574" lon="1.02761">
        <ele>74</ele>
        <time>2013-04-29T04:58:17Z</time>
      </trkpt>
      <trkpt lat="44.86869" lon="1.03541">
        <ele>73</ele>
        <time>2013-04-29T04:59:40Z</time>
      </trkpt>
      <trkpt lat="44.86892" lon="1.0362">
        <ele>71</ele>
        <time>2013-04-29T04:59:49Z</time>
      </trkpt>
      <trkpt lat="44.86936" lon="1.03835">
        <ele>66</ele>
        <time>2013-04-29T05:00:10Z</time>
      </trkpt>
      <trkpt lat="44.86939" lon="1.03878">
        <ele>66</ele>
        <time>2013-04-29T05:00:15Z</time>
      </trkpt>
      <trkpt lat="44.86905" lon="1.04558">
        <ele>73</ele>
        <time>2013-04-29T05:01:35Z</time>
      </trkpt>
      <trkpt lat="44.86899" lon="1.04709">
        <ele>73</ele>
        <time>2013-04-29T05:01:49Z</time>
      </trkpt>
      <trkpt lat="44.86901" lon="1.04741">
        <ele>73</ele>
        <time>2013-04-29T05:01:54Z</time>
      </trkpt>
      <trkpt lat="44.86921" lon="1.04785">
        <ele>75</ele>
        <time>2013-04-29T05:02:02Z</time>
      </trkpt>
      <trkpt lat="44.86921" lon="1.04784">
        <ele>74</ele>
        <time>2013-04-29T05:02:02Z</time>
      </trkpt>
      <trkpt lat="44.86901" lon="1.04741">
        <ele>73</ele>
        <time>2013-04-29T05:02:07Z</time>
      </trkpt>
      <trkpt lat="44.86892" lon="1.04752">
        <ele>73</ele>
        <time>2013-04-29T05:02:09Z</time>
      </trkpt>
      <trkpt lat="44.86858" lon="1.04865">
        <ele>69</ele>
        <time>2013-04-29T05:02:20Z</time>
      </trkpt>
      <trkpt lat="44.86802" lon="1.0494">
        <ele>67</ele>
        <time>2013-04-29T05:02:31Z</time>
      </trkpt>
      <trkpt lat="44.86764" lon="1.05013">
        <ele>67</ele>
        <time>2013-04-29T05:02:39Z</time>
      </trkpt>
      <trkpt lat="44.86744" lon="1.05017">
        <ele>67</ele>
        <time>2013-04-29T05:02:42Z</time>
      </trkpt>
      <trkpt lat="44.86685" lon="1.04996">
        <ele>67</ele>
        <time>2013-04-29T05:02:50Z</time>
      </trkpt>
      <trkpt lat="44.86659" lon="1.05006">
        <ele>68</ele>
        <time>2013-04-29T05:02:57Z</time>
      </trkpt>
      <trkpt lat="44.86583" lon="1.05101">
        <ele>74</ele>
        <time>2013-04-29T05:03:24Z</time>
      </trkpt>
      <trkpt lat="44.86476" lon="1.05192">
        <ele>74</ele>
        <time>2013-04-29T05:03:41Z</time>
      </trkpt>
      <trkpt lat="44.86394" lon="1.05286">
        <ele>72</ele>
        <time>2013-04-29T05:03:55Z</time>
      </trkpt>
      <trkpt lat="44.86382" lon="1.05282">
        <ele>72</ele>
        <time>2013-04-29T05:03:57Z</time>
      </trkpt>
      <trkpt lat="44.86369" lon="1.05266">
        <ele>72</ele>
        <time>2013-04-29T05:03:59Z</time>
      </trkpt>
      <trkpt lat="44.86056" lon="1.05965">
        <ele>73</ele>
        <time>2013-04-29T05:05:20Z</time>
      </trkpt>
      <trkpt lat="44.8604" lon="1.06035">
        <ele>72</ele>
        <time>2013-04-29T05:05:27Z</time>
      </trkpt>
      <trkpt lat="44.85988" lon="1.06319">
        <ele>71</ele>
        <time>2013-04-29T05:05:54Z</time>
      </trkpt>
      <trkpt lat="44.85967" lon="1.06378">
        <ele>71</ele>
        <time>2013-04-29T05:06:03Z</time>
      </trkpt>
      <trkpt lat="44.85946" lon="1.06415">
        <ele>72</ele>
        <time>2013-04-29T05:06:09Z</time>
      </trkpt>
      <trkpt lat="44.85867" lon="1.0652">
        <ele>75</ele>
        <time>2013-04-29T05:06:29Z</time>
      </trkpt>
      <trkpt lat="44.8584" lon="1.06565">
        <ele>76</ele>
        <time>2013-04-29T05:06:38Z</time>
      </trkpt>
      <trkpt lat="44.85742" lon="1.06831">
        <ele>84</ele>
        <time>2013-04-29T05:07:25Z</time>
      </trkpt>
      <trkpt lat="44.85701" lon="1.06912">
        <ele>83</ele>
        <time>2013-04-29T05:07:34Z</time>
      </trkpt>
      <trkpt lat="44.85423" lon="1.07336">
        <ele>79</ele>
        <time>2013-04-29T05:08:29Z</time>
      </trkpt>
      <trkpt lat="44.85313" lon="1.0749">
        <ele>75</ele>
        <time>2013-04-29T05:08:50Z</time>
      </trkpt>
      <trkpt lat="44.8526" lon="1.07534">
        <ele>71</ele>
        <time>2013-04-29T05:08:58Z</time>
      </trkpt>
      <trkpt lat="44.85125" lon="1.07586">
        <ele>62</ele>
        <time>2013-04-29T05:09:16Z</time>
      </trkpt>
      <trkpt lat="44.85075" lon="1.07623">
        <ele>62</ele>
        <time>2013-04-29T05:09:24Z</time>
      </trkpt>
      <trkpt lat="44.85035" lon="1.07669">
        <ele>62</ele>
        <time>2013-04-29T05:09:31Z</time>
      </trkpt>
      <trkpt lat="44.84918" lon="1.07848">
        <ele>63</ele>
        <time>2013-04-29T05:09:56Z</time>
      </trkpt>
      <trkpt lat="44.84888" lon="1.07887">
        <ele>63</ele>
        <time>2013-04-29T05:10:02Z</time>
      </trkpt>
      <trkpt lat="44.84654" lon="1.08157">
        <ele>63</ele>
        <time>2013-04-29T05:10:42Z</time>
      </trkpt>
      <trkpt lat="44.84593" lon="1.08212">
        <ele>62</ele>
        <time>2013-04-29T05:10:52Z</time>
      </trkpt>
      <trkpt lat="44.84433" lon="1.08323">
        <ele>62</ele>
        <time>2013-04-29T05:11:16Z</time>
      </trkpt>
      <trkpt lat="44.84386" lon="1.08366">
        <ele>62</ele>
        <time>2013-04-29T05:11:25Z</time>
      </trkpt>
      <trkpt lat="44.84054" lon="1.08723">
        <ele>69</ele>
        <time>2013-04-29T05:12:36Z</time>
      </trkpt>
      <trkpt lat="44.83942" lon="1.08852">
        <ele>67</ele>
        <time>2013-04-29T05:12:55Z</time>
      </trkpt>
      <trkpt lat="44.83903" lon="1.08918">
        <ele>69</ele>
        <time>2013-04-29T05:13:08Z</time>
      </trkpt>
      <trkpt lat="44.83876" lon="1.08981">
        <ele>71</ele>
        <time>2013-04-29T05:13:20Z</time>
      </trkpt>
      <trkpt lat="44.83762" lon="1.09355">
        <ele>74</ele>
        <time>2013-04-29T05:14:05Z</time>
      </trkpt>
      <trkpt lat="44.83751" lon="1.09383">
        <ele>74</ele>
        <time>2013-04-29T05:14:09Z</time>
      </trkpt>
      <trkpt lat="44.83741" lon="1.09397">
        <ele>74</ele>
        <time>2013-04-29T05:14:11Z</time>
      </trkpt>
      <trkpt lat="44.83706" lon="1.09479">
        <ele>75</ele>
        <time>2013-04-29T05:14:22Z</time>
      </trkpt>
      <trkpt lat="44.83702" lon="1.09504">
        <ele>74</ele>
        <time>2013-04-29T05:14:24Z</time>
      </trkpt>
      <trkpt lat="44.83675" lon="1.09585">
        <ele>73</ele>
        <time>2013-04-29T05:14:33Z</time>
      </trkpt>
      <trkpt lat="44.83633" lon="1.09759">
        <ele>72</ele>
        <time>2013-04-29T05:14:50Z</time>
      </trkpt>
      <trkpt lat="44.83545" lon="1.10202">
        <ele>67</ele>
        <time>2013-04-29T05:15:34Z</time>
      </trkpt>
      <trkpt lat="44.83525" lon="1.10353">
        <ele>66</ele>
        <time>2013-04-29T05:15:48Z</time>
      </trkpt>
      <trkpt lat="44.83521" lon="1.1045">
        <ele>66</ele>
        <time>2013-04-29T05:15:58Z</time>
      </trkpt>
      <trkpt lat="44.83524" lon="1.10522">
        <ele>66</ele>
        <time>2013-04-29T05:16:04Z</time>
      </trkpt>
      <trkpt lat="44.83558" lon="1.10795">
        <ele>67</ele>
        <time>2013-04-29T05:16:33Z</time>
      </trkpt>
      <trkpt lat="44.83679" lon="1.11639">
        <ele>67</ele>
        <time>2013-04-29T05:17:55Z</time>
      </trkpt>
      <trkpt lat="44.83821" lon="1.12668">
        <ele>72</ele>
        <time>2013-04-29T05:19:46Z</time>
      </trkpt>
      <trkpt lat="44.83821" lon="1.12737">
        <ele>73</ele>
        <time>2013-04-29T05:19:57Z</time>
      </trkpt>
      <trkpt lat="44.83798" lon="1.12837">
        <ele>77</ele>
        <time>2013-04-29T05:20:14Z</time>
      </trkpt>
      <trkpt lat="44.83791" lon="1.12888">
        <ele>77</ele>
        <time>2013-04-29T05:20:19Z</time>
      </trkpt>
      <trkpt lat="44.83795" lon="1.12958">
        <ele>77</ele>
        <time>2013-04-29T05:20:26Z</time>
      </trkpt>
      <trkpt lat="44.83808" lon="1.13007">
        <ele>77</ele>
        <time>2013-04-29T05:20:31Z</time>
      </trkpt>
      <trkpt lat="44.83826" lon="1.13047">
        <ele>79</ele>
        <time>2013-04-29T05:20:42Z</time>
      </trkpt>
      <trkpt lat="44.83907" lon="1.1318">
        <ele>89</ele>
        <time>2013-04-29T05:21:21Z</time>
      </trkpt>
      <trkpt lat="44.83939" lon="1.1324">
        <ele>90</ele>
        <time>2013-04-29T05:21:31Z</time>
      </trkpt>
      <trkpt lat="44.8399" lon="1.13391">
        <ele>93</ele>
        <time>2013-04-29T05:21:53Z</time>
      </trkpt>
      <trkpt lat="44.8399" lon="1.1339">
        <ele>92</ele>
        <time>2013-04-29T05:21:53Z</time>
      </trkpt>
      <trkpt lat="44.84021" lon="1.1348">
        <ele>90</ele>
        <time>2013-04-29T05:22:03Z</time>
      </trkpt>
      <trkpt lat="44.84059" lon="1.13612">
        <ele>86</ele>
        <time>2013-04-29T05:22:16Z</time>
      </trkpt>
      <trkpt lat="44.84081" lon="1.13732">
        <ele>78</ele>
        <time>2013-04-29T05:22:28Z</time>
      </trkpt>
      <trkpt lat="44.84073" lon="1.13781">
        <ele>75</ele>
        <time>2013-04-29T05:22:33Z</time>
      </trkpt>
      <trkpt lat="44.84048" lon="1.13851">
        <ele>77</ele>
        <time>2013-04-29T05:22:47Z</time>
      </trkpt>
      <trkpt lat="44.84018" lon="1.14063">
        <ele>85</ele>
        <time>2013-04-29T05:23:25Z</time>
      </trkpt>
      <trkpt lat="44.83996" lon="1.14175">
        <ele>83</ele>
        <time>2013-04-29T05:23:36Z</time>
      </trkpt>
      <trkpt lat="44.83942" lon="1.14351">
        <ele>81</ele>
        <time>2013-04-29T05:23:54Z</time>
      </trkpt>
      <trkpt lat="44.8393" lon="1.14579">
        <ele>90</ele>
        <time>2013-04-29T05:24:37Z</time>
      </trkpt>
      <trkpt lat="44.8392" lon="1.14668">
        <ele>83</ele>
        <time>2013-04-29T05:24:46Z</time>
      </trkpt>
      <trkpt lat="44.83915" lon="1.14687">
        <ele>81</ele>
        <time>2013-04-29T05:24:48Z</time>
      </trkpt>
      <trkpt lat="44.83828" lon="1.14866">
        <ele>66</ele>
        <time>2013-04-29T05:25:08Z</time>
      </trkpt>
      <trkpt lat="44.83757" lon="1.15047">
        <ele>66</ele>
        <time>2013-04-29T05:25:28Z</time>
      </trkpt>
      <trkpt lat="44.83722" lon="1.15098">
        <ele>66</ele>
        <time>2013-04-29T05:25:36Z</time>
      </trkpt>
      <trkpt lat="44.83696" lon="1.15122">
        <ele>67</ele>
        <time>2013-04-29T05:25:42Z</time>
      </trkpt>
      <trkpt lat="44.83652" lon="1.15149">
        <ele>68</ele>
        <time>2013-04-29T05:25:50Z</time>
      </trkpt>
      <trkpt lat="44.83419" lon="1.15239">
        <ele>66</ele>
        <time>2013-04-29T05:26:22Z</time>
      </trkpt>
      <trkpt lat="44.83409" lon="1.15248">
        <ele>66</ele>
        <time>2013-04-29T05:26:24Z</time>
      </trkpt>
      <trkpt lat="44.83395" lon="1.15279">
        <ele>66</ele>
        <time>2013-04-29T05:26:29Z</time>
      </trkpt>
      <trkpt lat="44.83373" lon="1.15377">
        <ele>68</ele>
        <time>2013-04-29T05:26:42Z</time>
      </trkpt>
      <trkpt lat="44.83362" lon="1.15393">
        <ele>68</ele>
        <time>2013-04-29T05:26:44Z</time>
      </trkpt>
      <trkpt lat="44.83338" lon="1.15412">
        <ele>68</ele>
        <time>2013-04-29T05:26:48Z</time>
      </trkpt>
      <trkpt lat="44.83271" lon="1.15322">
        <ele>69</ele>
        <time>2013-04-29T05:27:02Z</time>
      </trkpt>
      <trkpt lat="44.83246" lon="1.15297">
        <ele>69</ele>
        <time>2013-04-29T05:27:07Z</time>
      </trkpt>
      <trkpt lat="44.82986" lon="1.15295">
        <ele>71</ele>
        <time>2013-04-29T05:27:46Z</time>
      </trkpt>
      <trkpt lat="44.82923" lon="1.15315">
        <ele>71</ele>
        <time>2013-04-29T05:27:57Z</time>
      </trkpt>
      <trkpt lat="44.82585" lon="1.15463">
        <ele>77</ele>
        <time>2013-04-29T05:28:56Z</time>
      </trkpt>
      <trkpt lat="44.82535" lon="1.15491">
        <ele>77</ele>
        <time>2013-04-29T05:29:05Z</time>
      </trkpt>
      <trkpt lat="44.82468" lon="1.15549">
        <ele>79</ele>
        <time>2013-04-29T05:29:19Z</time>
      </trkpt>
      <trkpt lat="44.82439" lon="1.15579">
        <ele>79</ele>
        <time>2013-04-29T05:29:25Z</time>
      </trkpt>
      <trkpt lat="44.82359" lon="1.1569">
        <ele>81</ele>
        <time>2013-04-29T05:29:43Z</time>
      </trkpt>
      <trkpt lat="44.82283" lon="1.15775">
        <ele>82</ele>
        <time>2013-04-29T05:29:59Z</time>
      </trkpt>
      <trkpt lat="44.82208" lon="1.15892">
        <ele>79</ele>
        <time>2013-04-29T05:30:14Z</time>
      </trkpt>
      <trkpt lat="44.82184" lon="1.1596">
        <ele>78</ele>
        <time>2013-04-29T05:30:21Z</time>
      </trkpt>
      <trkpt lat="44.82177" lon="1.16017">
        <ele>78</ele>
        <time>2013-04-29T05:30:26Z</time>
      </trkpt>
      <trkpt lat="44.82183" lon="1.16159">
        <ele>82</ele>
        <time>2013-04-29T05:30:49Z</time>
      </trkpt>
      <trkpt lat="44.82205" lon="1.16278">
        <ele>83</ele>
        <time>2013-04-29T05:31:06Z</time>
      </trkpt>
      <trkpt lat="44.82236" lon="1.16406">
        <ele>86</ele>
        <time>2013-04-29T05:31:24Z</time>
      </trkpt>
      <trkpt lat="44.8226" lon="1.16474">
        <ele>87</ele>
        <time>2013-04-29T05:31:34Z</time>
      </trkpt>
      <trkpt lat="44.82368" lon="1.16703">
        <ele>93</ele>
        <time>2013-04-29T05:32:14Z</time>
      </trkpt>
      <trkpt lat="44.82389" lon="1.16756">
        <ele>92</ele>
        <time>2013-04-29T05:32:19Z</time>
      </trkpt>
      <trkpt lat="44.82404" lon="1.16819">
        <ele>92</ele>
        <time>2013-04-29T05:32:26Z</time>
      </trkpt>
      <trkpt lat="44.82447" lon="1.1695">
        <ele>92</ele>
        <time>2013-04-29T05:32:39Z</time>
      </trkpt>
      <trkpt lat="44.82469" lon="1.17027">
        <ele>93</ele>
        <time>2013-04-29T05:32:50Z</time>
      </trkpt>
      <trkpt lat="44.82501" lon="1.17167">
        <ele>95</ele>
        <time>2013-04-29T05:33:08Z</time>
      </trkpt>
      <trkpt lat="44.82543" lon="1.17474">
        <ele>85</ele>
        <time>2013-04-29T05:33:38Z</time>
      </trkpt>
      <trkpt lat="44.82552" lon="1.17493">
        <ele>86</ele>
        <time>2013-04-29T05:33:44Z</time>
      </trkpt>
      <trkpt lat="44.82594" lon="1.17542">
        <ele>92</ele>
        <time>2013-04-29T05:34:05Z</time>
      </trkpt>
      <trkpt lat="44.82654" lon="1.17625">
        <ele>101</ele>
        <time>2013-04-29T05:34:37Z</time>
      </trkpt>
      <trkpt lat="44.82695" lon="1.17734">
        <ele>93</ele>
        <time>2013-04-29T05:34:49Z</time>
      </trkpt>
      <trkpt lat="44.82709" lon="1.17787">
        <ele>90</ele>
        <time>2013-04-29T05:34:54Z</time>
      </trkpt>
      <trkpt lat="44.82714" lon="1.17848">
        <ele>89</ele>
        <time>2013-04-29T05:35:00Z</time>
      </trkpt>
      <trkpt lat="44.82706" lon="1.17891">
        <ele>88</ele>
        <time>2013-04-29T05:35:04Z</time>
      </trkpt>
      <trkpt lat="44.82632" lon="1.18111">
        <ele>86</ele>
        <time>2013-04-29T05:35:27Z</time>
      </trkpt>
    </trkseg>
  </trk>
</gpx>